UAL137 PGUM-RJGG
Flight info
| Callsign | UAL137 |
|---|---|
| Flight time | 3h 21m |
| Altitude | 36000 |
| Route | RICHH A597 BUBDO Y47 KEC Y415 NATCH Y755 CARDS |
| Aircraft | B738/M-SDE3GHIJ4RWXYZ/LB1 |
Departure
| Time | 2026-04-21 16:06 |
|---|---|
| Airport | Antonio B. Won Pat International Airport (PGUM) |
Arrival
| Time | 2026-04-21 19:27 |
|---|---|
| Airport | Chubu Centrair International Airport (RJGG) |
| Time | Latitude | Longitude | Altitude | Speed | Heading |
|---|---|---|---|---|---|
| 2026-04-21 15:28 | 13.49425 | 144.80927 | 299 ft | 0 kts | 243° |
| 2026-04-21 15:51 | 13.49428 | 144.80932 | 298 ft | 3 kts | 240° |
| 2026-04-21 15:51 | 13.49441 | 144.80953 | 300 ft | 3 kts | 234° |
| 2026-04-21 15:51 | 13.49456 | 144.80971 | 301 ft | 3 kts | 222° |
| 2026-04-21 15:51 | 13.49474 | 144.80985 | 298 ft | 3 kts | 194° |
| 2026-04-21 15:52 | 13.49490 | 144.80985 | 298 ft | 0 kts | 151° |
| 2026-04-21 15:53 | 13.49444 | 144.81011 | 298 ft | 15 kts | 151° |
| 2026-04-21 15:54 | 13.49337 | 144.81042 | 298 ft | 16 kts | 202° |
| 2026-04-21 15:54 | 13.49283 | 144.80955 | 301 ft | 15 kts | 242° |
| 2026-04-21 15:54 | 13.49225 | 144.80843 | 297 ft | 19 kts | 241° |
| 2026-04-21 15:54 | 13.49163 | 144.80724 | 298 ft | 19 kts | 242° |
| 2026-04-21 15:55 | 13.49099 | 144.80602 | 297 ft | 20 kts | 241° |
| 2026-04-21 15:55 | 13.49031 | 144.80475 | 297 ft | 20 kts | 240° |
| 2026-04-21 15:55 | 13.48940 | 144.80373 | 295 ft | 18 kts | 229° |
| 2026-04-21 15:55 | 13.48874 | 144.80270 | 293 ft | 17 kts | 241° |
| 2026-04-21 15:56 | 13.48822 | 144.80165 | 294 ft | 16 kts | 245° |
| 2026-04-21 15:56 | 13.48775 | 144.80062 | 294 ft | 16 kts | 245° |
| 2026-04-21 15:56 | 13.48729 | 144.79963 | 290 ft | 16 kts | 245° |
| 2026-04-21 15:56 | 13.48670 | 144.79832 | 290 ft | 23 kts | 245° |
| 2026-04-21 15:57 | 13.48603 | 144.79686 | 287 ft | 20 kts | 245° |
| 2026-04-21 15:57 | 13.48543 | 144.79557 | 286 ft | 20 kts | 245° |
| 2026-04-21 15:57 | 13.48486 | 144.79431 | 285 ft | 19 kts | 245° |
| 2026-04-21 15:57 | 13.48430 | 144.79309 | 285 ft | 19 kts | 245° |
| 2026-04-21 15:58 | 13.48371 | 144.79180 | 284 ft | 21 kts | 245° |
| 2026-04-21 15:58 | 13.48309 | 144.79044 | 284 ft | 21 kts | 245° |
| 2026-04-21 15:58 | 13.48246 | 144.78907 | 284 ft | 21 kts | 245° |
| 2026-04-21 15:58 | 13.48184 | 144.78770 | 283 ft | 21 kts | 245° |
| 2026-04-21 15:59 | 13.48123 | 144.78637 | 282 ft | 21 kts | 245° |
| 2026-04-21 15:59 | 13.48059 | 144.78496 | 280 ft | 22 kts | 245° |
| 2026-04-21 15:59 | 13.47994 | 144.78354 | 279 ft | 22 kts | 245° |
| 2026-04-21 15:59 | 13.47932 | 144.78220 | 278 ft | 17 kts | 244° |
| 2026-04-21 16:00 | 13.47873 | 144.78135 | 276 ft | 14 kts | 199° |
| 2026-04-21 16:00 | 13.47825 | 144.78140 | 266 ft | 0 kts | 149° |
| 2026-04-21 16:01 | 13.47824 | 144.78140 | 266 ft | 0 kts | 149° |
| 2026-04-21 16:01 | 13.47802 | 144.78158 | 274 ft | 10 kts | 123° |
| 2026-04-21 16:01 | 13.47808 | 144.78214 | 265 ft | 0 kts | 63° |
| 2026-04-21 16:05 | 13.47905 | 144.78423 | 267 ft | 68 kts | 66° |
| 2026-04-21 16:05 | 13.48202 | 144.79074 | 276 ft | 131 kts | 65° |
| 2026-04-21 16:05 | 13.48664 | 144.80092 | 358 ft | 178 kts | 65° |
| 2026-04-21 16:05 | 13.49227 | 144.81316 | 874 ft | 197 kts | 65° |
| 2026-04-21 16:06 | 13.49802 | 144.82616 | 1536 ft | 203 kts | 66° |
| 2026-04-21 16:06 | 13.50403 | 144.84021 | 1782 ft | 228 kts | 70° |
| 2026-04-21 16:06 | 13.50583 | 144.85635 | 2280 ft | 238 kts | 98° |
| 2026-04-21 16:06 | 13.49885 | 144.87201 | 2794 ft | 255 kts | 128° |
| 2026-04-21 16:07 | 13.48434 | 144.88292 | 3609 ft | 262 kts | 152° |
| 2026-04-21 16:07 | 13.46756 | 144.89045 | 4498 ft | 266 kts | 156° |
| 2026-04-21 16:07 | 13.44913 | 144.89373 | 5255 ft | 276 kts | 182° |
| 2026-04-21 16:07 | 13.43072 | 144.88790 | 6110 ft | 283 kts | 209° |
| 2026-04-21 16:08 | 13.40309 | 144.85849 | 7646 ft | 292 kts | 230° |
| 2026-04-21 16:08 | 13.39194 | 144.84114 | 8470 ft | 294 kts | 249° |
| 2026-04-21 16:08 | 13.39001 | 144.82034 | 9220 ft | 298 kts | 281° |
| 2026-04-21 16:09 | 13.39889 | 144.80102 | 9895 ft | 305 kts | 313° |
| 2026-04-21 16:09 | 13.41550 | 144.78749 | 10464 ft | 314 kts | 328° |
| 2026-04-21 16:09 | 13.43530 | 144.77606 | 10621 ft | 337 kts | 334° |
| 2026-04-21 16:09 | 13.45707 | 144.76513 | 10787 ft | 358 kts | 335° |
| 2026-04-21 16:10 | 13.48009 | 144.75398 | 11066 ft | 373 kts | 335° |
| 2026-04-21 16:10 | 13.50380 | 144.74249 | 11629 ft | 378 kts | 335° |
| 2026-04-21 16:10 | 13.52759 | 144.73081 | 12281 ft | 380 kts | 334° |
| 2026-04-21 16:10 | 13.55149 | 144.71892 | 12950 ft | 382 kts | 334° |
| 2026-04-21 16:11 | 13.57563 | 144.70678 | 13407 ft | 390 kts | 334° |
| 2026-04-21 16:11 | 13.59975 | 144.69456 | 14027 ft | 390 kts | 334° |
| 2026-04-21 16:11 | 13.62404 | 144.68219 | 14708 ft | 389 kts | 334° |
| 2026-04-21 16:11 | 13.64849 | 144.66971 | 15186 ft | 394 kts | 334° |
| 2026-04-21 16:12 | 13.66516 | 144.66119 | 15540 ft | 396 kts | 334° |
| 2026-04-21 16:12 | 13.69806 | 144.64435 | 16169 ft | 401 kts | 333° |
| 2026-04-21 16:12 | 13.72312 | 144.63152 | 16709 ft | 403 kts | 333° |
| 2026-04-21 16:12 | 13.74825 | 144.61864 | 17272 ft | 404 kts | 333° |
| 2026-04-21 16:13 | 13.77344 | 144.60574 | 17818 ft | 405 kts | 333° |
| 2026-04-21 16:13 | 13.79874 | 144.59277 | 18296 ft | 408 kts | 333° |
| 2026-04-21 16:13 | 13.82425 | 144.57970 | 18697 ft | 410 kts | 333° |
| 2026-04-21 16:13 | 13.84986 | 144.56657 | 19127 ft | 412 kts | 333° |
| 2026-04-21 16:14 | 13.87557 | 144.55338 | 19536 ft | 414 kts | 333° |
| 2026-04-21 16:14 | 13.90147 | 144.54010 | 19918 ft | 417 kts | 333° |
| 2026-04-21 16:14 | 13.92752 | 144.52674 | 20316 ft | 419 kts | 333° |
| 2026-04-21 16:14 | 13.95364 | 144.51334 | 20748 ft | 420 kts | 333° |
| 2026-04-21 16:15 | 13.97986 | 144.49988 | 21150 ft | 422 kts | 333° |
| 2026-04-21 16:15 | 14.00624 | 144.48633 | 21522 ft | 424 kts | 333° |
| 2026-04-21 16:15 | 14.03267 | 144.47276 | 21961 ft | 425 kts | 333° |
| 2026-04-21 16:15 | 14.05927 | 144.45910 | 22295 ft | 428 kts | 333° |
| 2026-04-21 16:16 | 14.08602 | 144.44535 | 22586 ft | 432 kts | 333° |
| 2026-04-21 16:16 | 14.11294 | 144.43152 | 23039 ft | 431 kts | 333° |
| 2026-04-21 16:16 | 14.13977 | 144.41773 | 23442 ft | 432 kts | 333° |
| 2026-04-21 16:16 | 14.16680 | 144.40383 | 23638 ft | 437 kts | 333° |
| 2026-04-21 16:17 | 14.19370 | 144.38999 | 23918 ft | 438 kts | 333° |
| 2026-04-21 16:17 | 14.22128 | 144.37580 | 24290 ft | 437 kts | 333° |
| 2026-04-21 16:17 | 14.24814 | 144.36198 | 24550 ft | 439 kts | 333° |
| 2026-04-21 16:17 | 14.27567 | 144.34781 | 24675 ft | 445 kts | 333° |
| 2026-04-21 16:18 | 14.30340 | 144.33353 | 24996 ft | 444 kts | 333° |
| 2026-04-21 16:18 | 14.33088 | 144.31938 | 25449 ft | 441 kts | 333° |
| 2026-04-21 16:18 | 14.35846 | 144.30517 | 25652 ft | 445 kts | 333° |
| 2026-04-21 16:18 | 14.38633 | 144.29081 | 25785 ft | 450 kts | 333° |
| 2026-04-21 16:19 | 14.41442 | 144.27633 | 25982 ft | 453 kts | 333° |
| 2026-04-21 16:19 | 14.44267 | 144.26176 | 26194 ft | 455 kts | 333° |
| 2026-04-21 16:19 | 14.47100 | 144.24715 | 26445 ft | 456 kts | 333° |
| 2026-04-21 16:19 | 14.49945 | 144.23247 | 26708 ft | 457 kts | 333° |
| 2026-04-21 16:20 | 14.52790 | 144.21779 | 27005 ft | 457 kts | 333° |
| 2026-04-21 16:20 | 14.55632 | 144.20312 | 27286 ft | 457 kts | 333° |
| 2026-04-21 16:20 | 14.58485 | 144.18839 | 27494 ft | 459 kts | 333° |
| 2026-04-21 16:20 | 14.61350 | 144.17359 | 27703 ft | 461 kts | 333° |
| 2026-04-21 16:21 | 14.64225 | 144.15873 | 27858 ft | 464 kts | 333° |
| 2026-04-21 16:21 | 14.67117 | 144.14379 | 28061 ft | 466 kts | 333° |
| 2026-04-21 16:21 | 14.70019 | 144.12879 | 28280 ft | 466 kts | 332° |
| 2026-04-21 16:21 | 14.72917 | 144.11380 | 28571 ft | 466 kts | 332° |
| 2026-04-21 16:22 | 14.74838 | 144.10387 | 28718 ft | 466 kts | 332° |
| 2026-04-21 16:22 | 14.78729 | 144.08373 | 28939 ft | 469 kts | 332° |
| 2026-04-21 16:22 | 14.81657 | 144.06858 | 29137 ft | 471 kts | 332° |
| 2026-04-21 16:22 | 14.84583 | 144.05343 | 29416 ft | 470 kts | 332° |
| 2026-04-21 16:23 | 14.87502 | 144.03831 | 29734 ft | 469 kts | 332° |
| 2026-04-21 16:23 | 14.89431 | 144.02832 | 29950 ft | 468 kts | 332° |
| 2026-04-21 16:23 | 14.92335 | 144.01327 | 30218 ft | 467 kts | 332° |
| 2026-04-21 16:23 | 14.95241 | 143.99821 | 30451 ft | 467 kts | 332° |
| 2026-04-21 16:24 | 14.98143 | 143.98317 | 30703 ft | 466 kts | 332° |
| 2026-04-21 16:24 | 15.01037 | 143.96816 | 30976 ft | 465 kts | 332° |
| 2026-04-21 16:24 | 15.03925 | 143.95318 | 31250 ft | 464 kts | 332° |
| 2026-04-21 16:24 | 15.06814 | 143.93818 | 31513 ft | 463 kts | 332° |
| 2026-04-21 16:25 | 15.09693 | 143.92324 | 31787 ft | 462 kts | 332° |
| 2026-04-21 16:25 | 15.12565 | 143.90833 | 32089 ft | 461 kts | 332° |
| 2026-04-21 16:25 | 15.15392 | 143.89364 | 32382 ft | 459 kts | 332° |
| 2026-04-21 16:25 | 15.18243 | 143.87883 | 32648 ft | 459 kts | 332° |
| 2026-04-21 16:26 | 15.21097 | 143.86400 | 32908 ft | 459 kts | 332° |
| 2026-04-21 16:26 | 15.23945 | 143.84919 | 33190 ft | 458 kts | 332° |
| 2026-04-21 16:26 | 15.26791 | 143.83439 | 33485 ft | 457 kts | 332° |
| 2026-04-21 16:26 | 15.29625 | 143.81964 | 33772 ft | 456 kts | 332° |
| 2026-04-21 16:27 | 15.32458 | 143.80490 | 34031 ft | 455 kts | 332° |
| 2026-04-21 16:27 | 15.35282 | 143.79020 | 34260 ft | 455 kts | 332° |
| 2026-04-21 16:27 | 15.38114 | 143.77545 | 34464 ft | 455 kts | 332° |
| 2026-04-21 16:27 | 15.40945 | 143.76070 | 34663 ft | 455 kts | 332° |
| 2026-04-21 16:28 | 15.43775 | 143.74596 | 34876 ft | 455 kts | 332° |
| 2026-04-21 16:28 | 15.46604 | 143.73121 | 35083 ft | 455 kts | 332° |
| 2026-04-21 16:28 | 15.49432 | 143.71647 | 35297 ft | 455 kts | 332° |
| 2026-04-21 16:28 | 15.52266 | 143.70170 | 35532 ft | 454 kts | 332° |
| 2026-04-21 16:29 | 15.55088 | 143.68697 | 35743 ft | 454 kts | 332° |
| 2026-04-21 16:29 | 15.57911 | 143.67224 | 35927 ft | 454 kts | 332° |
| 2026-04-21 16:29 | 15.60741 | 143.65747 | 35961 ft | 457 kts | 332° |
| 2026-04-21 16:30 | 15.66427 | 143.62777 | 35968 ft | 456 kts | 332° |
| 2026-04-21 16:30 | 15.72040 | 143.59845 | 35966 ft | 453 kts | 332° |
| 2026-04-21 16:31 | 15.77659 | 143.56907 | 35971 ft | 451 kts | 332° |
| 2026-04-21 16:31 | 15.83254 | 143.53980 | 35972 ft | 449 kts | 332° |
| 2026-04-21 16:32 | 15.88833 | 143.51058 | 35974 ft | 449 kts | 332° |
| 2026-04-21 16:32 | 15.94421 | 143.48131 | 35970 ft | 449 kts | 332° |
| 2026-04-21 16:33 | 16.00009 | 143.45202 | 35973 ft | 450 kts | 332° |
| 2026-04-21 16:33 | 16.05619 | 143.42259 | 35976 ft | 452 kts | 332° |
| 2026-04-21 16:34 | 16.11247 | 143.39305 | 35976 ft | 454 kts | 332° |
| 2026-04-21 16:34 | 16.16859 | 143.36358 | 35981 ft | 456 kts | 332° |
| 2026-04-21 16:35 | 16.22536 | 143.33374 | 35979 ft | 457 kts | 332° |
| 2026-04-21 16:35 | 16.28219 | 143.30386 | 35978 ft | 458 kts | 332° |
| 2026-04-21 16:36 | 16.33906 | 143.27393 | 35975 ft | 458 kts | 332° |
| 2026-04-21 16:36 | 16.39596 | 143.24397 | 35978 ft | 458 kts | 331° |
| 2026-04-21 16:37 | 16.45279 | 143.21403 | 35972 ft | 457 kts | 331° |
| 2026-04-21 16:37 | 16.50950 | 143.18413 | 35974 ft | 456 kts | 331° |
| 2026-04-21 16:38 | 16.56610 | 143.15430 | 35974 ft | 455 kts | 331° |
| 2026-04-21 16:38 | 16.62256 | 143.12462 | 35975 ft | 454 kts | 331° |
| 2026-04-21 16:39 | 16.67877 | 143.09498 | 35979 ft | 452 kts | 331° |
| 2026-04-21 16:39 | 16.73494 | 143.06527 | 35979 ft | 451 kts | 331° |
| 2026-04-21 16:40 | 16.79058 | 143.03581 | 35980 ft | 451 kts | 331° |
| 2026-04-21 16:40 | 16.84647 | 143.00620 | 35983 ft | 450 kts | 331° |
| 2026-04-21 16:41 | 16.90234 | 142.97658 | 35985 ft | 450 kts | 331° |
| 2026-04-21 16:41 | 16.95814 | 142.94697 | 35983 ft | 450 kts | 331° |
| 2026-04-21 16:42 | 17.01402 | 142.91731 | 35984 ft | 450 kts | 331° |
| 2026-04-21 16:42 | 17.06987 | 142.88763 | 35984 ft | 450 kts | 331° |
| 2026-04-21 16:43 | 17.12574 | 142.85793 | 35982 ft | 450 kts | 331° |
| 2026-04-21 16:43 | 17.18161 | 142.82821 | 35985 ft | 451 kts | 330° |
| 2026-04-21 16:44 | 17.23719 | 142.79782 | 35983 ft | 451 kts | 329° |
| 2026-04-21 16:44 | 17.29188 | 142.76648 | 35986 ft | 451 kts | 329° |
| 2026-04-21 16:45 | 17.34680 | 142.73488 | 35983 ft | 451 kts | 329° |
| 2026-04-21 16:45 | 17.40188 | 142.70334 | 35990 ft | 451 kts | 329° |
| 2026-04-21 16:46 | 17.45692 | 142.67191 | 35982 ft | 451 kts | 329° |
| 2026-04-21 16:46 | 17.51196 | 142.64048 | 35982 ft | 450 kts | 329° |
| 2026-04-21 16:47 | 17.56695 | 142.60907 | 35984 ft | 450 kts | 329° |
| 2026-04-21 16:47 | 17.62194 | 142.57763 | 35984 ft | 450 kts | 329° |
| 2026-04-21 16:48 | 17.67695 | 142.54615 | 35989 ft | 450 kts | 329° |
| 2026-04-21 16:48 | 17.73144 | 142.51495 | 35984 ft | 449 kts | 329° |
| 2026-04-21 16:49 | 17.78629 | 142.48351 | 35990 ft | 449 kts | 329° |
| 2026-04-21 16:49 | 17.84105 | 142.45212 | 35991 ft | 448 kts | 329° |
| 2026-04-21 16:50 | 17.89582 | 142.42069 | 35993 ft | 448 kts | 329° |
| 2026-04-21 16:50 | 17.95049 | 142.38930 | 35988 ft | 448 kts | 329° |
| 2026-04-21 16:51 | 18.00516 | 142.35787 | 35988 ft | 448 kts | 329° |
| 2026-04-21 16:51 | 18.05981 | 142.32645 | 35987 ft | 448 kts | 329° |
| 2026-04-21 16:52 | 18.11457 | 142.29493 | 35992 ft | 448 kts | 329° |
| 2026-04-21 16:52 | 18.16922 | 142.26346 | 35983 ft | 448 kts | 329° |
| 2026-04-21 16:53 | 18.22389 | 142.23195 | 35994 ft | 448 kts | 329° |
| 2026-04-21 16:53 | 18.27859 | 142.20041 | 35989 ft | 448 kts | 329° |
| 2026-04-21 16:54 | 18.33295 | 142.16904 | 35989 ft | 448 kts | 329° |
| 2026-04-21 16:54 | 18.38775 | 142.13738 | 36000 ft | 448 kts | 328° |
| 2026-04-21 16:55 | 18.44240 | 142.10580 | 35986 ft | 448 kts | 328° |
| 2026-04-21 16:55 | 18.49705 | 142.07419 | 35992 ft | 448 kts | 328° |
| 2026-04-21 16:56 | 18.55172 | 142.04255 | 35985 ft | 448 kts | 328° |
| 2026-04-21 16:56 | 18.60630 | 142.01093 | 36003 ft | 447 kts | 328° |
| 2026-04-21 16:57 | 18.66086 | 141.97931 | 35993 ft | 447 kts | 328° |
| 2026-04-21 16:57 | 18.71536 | 141.94769 | 35992 ft | 447 kts | 328° |
| 2026-04-21 16:58 | 18.76990 | 141.91681 | 35984 ft | 449 kts | 335° |
| 2026-04-21 16:58 | 18.80012 | 141.90801 | 36008 ft | 453 kts | 349° |
| 2026-04-21 16:58 | 18.83129 | 141.90295 | 35993 ft | 452 kts | 342° |
| 2026-04-21 16:58 | 18.86036 | 141.89134 | 36004 ft | 445 kts | 329° |
| 2026-04-21 16:59 | 18.88755 | 141.87586 | 35999 ft | 444 kts | 328° |
| 2026-04-21 16:59 | 18.94134 | 141.84379 | 35992 ft | 444 kts | 327° |
| 2026-04-21 17:00 | 18.99528 | 141.81168 | 35993 ft | 445 kts | 328° |
| 2026-04-21 17:00 | 19.04027 | 141.78523 | 35995 ft | 445 kts | 328° |
| 2026-04-21 17:01 | 19.10371 | 141.74819 | 36004 ft | 446 kts | 328° |
| 2026-04-21 17:01 | 19.15804 | 141.71650 | 35994 ft | 446 kts | 328° |
| 2026-04-21 17:02 | 19.21240 | 141.68476 | 35994 ft | 446 kts | 328° |
| 2026-04-21 17:02 | 19.26677 | 141.65300 | 35994 ft | 446 kts | 328° |
| 2026-04-21 17:03 | 19.32081 | 141.62138 | 36006 ft | 446 kts | 328° |
| 2026-04-21 17:03 | 19.37512 | 141.58959 | 35992 ft | 446 kts | 328° |
| 2026-04-21 17:04 | 19.42935 | 141.55782 | 35996 ft | 445 kts | 328° |
| 2026-04-21 17:04 | 19.48348 | 141.52608 | 35994 ft | 444 kts | 328° |
| 2026-04-21 17:05 | 19.53750 | 141.49439 | 36000 ft | 443 kts | 328° |
| 2026-04-21 17:05 | 19.59151 | 141.46268 | 35990 ft | 443 kts | 328° |
| 2026-04-21 17:06 | 19.64532 | 141.43106 | 35991 ft | 442 kts | 328° |
| 2026-04-21 17:06 | 19.69905 | 141.39946 | 35990 ft | 441 kts | 327° |
| 2026-04-21 17:07 | 19.74362 | 141.37323 | 35994 ft | 441 kts | 327° |
| 2026-04-21 17:07 | 19.80624 | 141.33634 | 35997 ft | 440 kts | 327° |
| 2026-04-21 17:08 | 19.85975 | 141.30480 | 35994 ft | 440 kts | 327° |
| 2026-04-21 17:08 | 19.91326 | 141.27323 | 35993 ft | 440 kts | 327° |
| 2026-04-21 17:09 | 19.99352 | 141.22584 | 36000 ft | 440 kts | 327° |
| 2026-04-21 17:09 | 20.04702 | 141.19421 | 35999 ft | 440 kts | 327° |
| 2026-04-21 17:10 | 20.09151 | 141.16789 | 35995 ft | 440 kts | 327° |
| 2026-04-21 17:10 | 20.15382 | 141.13101 | 35993 ft | 440 kts | 327° |
| 2026-04-21 17:11 | 20.19876 | 141.10438 | 35989 ft | 441 kts | 327° |
| 2026-04-21 17:11 | 20.25201 | 141.07281 | 35995 ft | 441 kts | 327° |
| 2026-04-21 17:12 | 20.30555 | 141.04104 | 36001 ft | 441 kts | 327° |
| 2026-04-21 17:12 | 20.35915 | 141.00921 | 36002 ft | 441 kts | 327° |
| 2026-04-21 17:13 | 20.41275 | 140.97735 | 36003 ft | 441 kts | 327° |
| 2026-04-21 17:13 | 20.46636 | 140.94547 | 36013 ft | 441 kts | 327° |
| 2026-04-21 17:14 | 20.51995 | 140.91357 | 35998 ft | 441 kts | 327° |
| 2026-04-21 17:14 | 20.57351 | 140.88166 | 35998 ft | 441 kts | 327° |
| 2026-04-21 17:15 | 20.62700 | 140.84976 | 35998 ft | 440 kts | 327° |
| 2026-04-21 17:15 | 20.68045 | 140.81787 | 36007 ft | 440 kts | 327° |
| 2026-04-21 17:16 | 20.73383 | 140.78599 | 36003 ft | 439 kts | 327° |
| 2026-04-21 17:16 | 20.78716 | 140.75411 | 35999 ft | 439 kts | 327° |
| 2026-04-21 17:17 | 20.84046 | 140.72223 | 36001 ft | 439 kts | 327° |
| 2026-04-21 17:17 | 20.89370 | 140.69035 | 36019 ft | 438 kts | 327° |
| 2026-04-21 17:18 | 20.94690 | 140.65846 | 35999 ft | 438 kts | 327° |
| 2026-04-21 17:18 | 21.00003 | 140.62659 | 35999 ft | 438 kts | 327° |
| 2026-04-21 17:19 | 21.05573 | 140.59956 | 36009 ft | 443 kts | 338° |
| 2026-04-21 17:19 | 21.11467 | 140.58113 | 36005 ft | 445 kts | 340° |
| 2026-04-21 17:20 | 21.17417 | 140.56265 | 36012 ft | 445 kts | 339° |
| 2026-04-21 17:20 | 21.23319 | 140.54292 | 36013 ft | 444 kts | 338° |
| 2026-04-21 17:21 | 21.29197 | 140.52248 | 36002 ft | 444 kts | 338° |
| 2026-04-21 17:21 | 21.35074 | 140.50183 | 36004 ft | 444 kts | 337° |
| 2026-04-21 17:22 | 21.40951 | 140.48116 | 36009 ft | 445 kts | 337° |
| 2026-04-21 17:22 | 21.46831 | 140.46050 | 36010 ft | 445 kts | 337° |
| 2026-04-21 17:23 | 21.52718 | 140.43981 | 36010 ft | 445 kts | 337° |
| 2026-04-21 17:23 | 21.58598 | 140.41913 | 36020 ft | 444 kts | 337° |
| 2026-04-21 17:24 | 21.64470 | 140.39847 | 36013 ft | 444 kts | 337° |
| 2026-04-21 17:24 | 21.70347 | 140.37776 | 36010 ft | 444 kts | 337° |
| 2026-04-21 17:25 | 21.76217 | 140.35707 | 36011 ft | 444 kts | 337° |
| 2026-04-21 17:25 | 21.82083 | 140.33637 | 36019 ft | 444 kts | 337° |
| 2026-04-21 17:26 | 21.87948 | 140.31565 | 36014 ft | 443 kts | 337° |
| 2026-04-21 17:26 | 21.93814 | 140.29491 | 36013 ft | 443 kts | 337° |
| 2026-04-21 17:27 | 21.99633 | 140.27433 | 36013 ft | 443 kts | 337° |
| 2026-04-21 17:27 | 22.05486 | 140.25360 | 36029 ft | 443 kts | 337° |
| 2026-04-21 17:28 | 22.11342 | 140.23284 | 36016 ft | 443 kts | 337° |
| 2026-04-21 17:28 | 22.17193 | 140.21208 | 36017 ft | 442 kts | 337° |
| 2026-04-21 17:29 | 22.23040 | 140.19132 | 36015 ft | 442 kts | 337° |
| 2026-04-21 17:29 | 22.28885 | 140.17055 | 36034 ft | 442 kts | 337° |
| 2026-04-21 17:30 | 22.34738 | 140.14973 | 36021 ft | 442 kts | 336° |
| 2026-04-21 17:30 | 22.40583 | 140.12892 | 36019 ft | 442 kts | 336° |
| 2026-04-21 17:31 | 22.46431 | 140.10809 | 36022 ft | 442 kts | 336° |
| 2026-04-21 17:31 | 22.52279 | 140.08723 | 36022 ft | 442 kts | 336° |
| 2026-04-21 17:32 | 22.58125 | 140.06637 | 36022 ft | 442 kts | 336° |
| 2026-04-21 17:32 | 22.63976 | 140.04546 | 36022 ft | 442 kts | 336° |
| 2026-04-21 17:33 | 22.69824 | 140.02455 | 36022 ft | 442 kts | 336° |
| 2026-04-21 17:33 | 22.75631 | 140.00377 | 36031 ft | 443 kts | 336° |
| 2026-04-21 17:34 | 22.81482 | 139.98280 | 36020 ft | 443 kts | 336° |
| 2026-04-21 17:34 | 22.87328 | 139.96184 | 36021 ft | 443 kts | 336° |
| 2026-04-21 17:35 | 22.93176 | 139.94086 | 36023 ft | 443 kts | 336° |
| 2026-04-21 17:35 | 22.99025 | 139.91984 | 36026 ft | 443 kts | 336° |
| 2026-04-21 17:36 | 23.04871 | 139.89883 | 36021 ft | 443 kts | 336° |
| 2026-04-21 17:36 | 23.10719 | 139.87778 | 36022 ft | 442 kts | 336° |
| 2026-04-21 17:37 | 23.16562 | 139.85674 | 36022 ft | 442 kts | 336° |
| 2026-04-21 17:37 | 23.22403 | 139.83568 | 36027 ft | 442 kts | 336° |
| 2026-04-21 17:38 | 23.28247 | 139.81459 | 36024 ft | 442 kts | 336° |
| 2026-04-21 17:38 | 23.34093 | 139.79347 | 36024 ft | 442 kts | 336° |
| 2026-04-21 17:39 | 23.39932 | 139.77236 | 36035 ft | 442 kts | 336° |
| 2026-04-21 17:39 | 23.45768 | 139.75124 | 36024 ft | 442 kts | 336° |
| 2026-04-21 17:40 | 23.51603 | 139.73011 | 36027 ft | 442 kts | 336° |
| 2026-04-21 17:40 | 23.57435 | 139.70897 | 36027 ft | 442 kts | 336° |
| 2026-04-21 17:41 | 23.63265 | 139.68781 | 36042 ft | 442 kts | 336° |
| 2026-04-21 17:41 | 23.69062 | 139.66675 | 36028 ft | 442 kts | 336° |
| 2026-04-21 17:42 | 23.74894 | 139.64555 | 36028 ft | 442 kts | 336° |
| 2026-04-21 17:42 | 23.80722 | 139.62434 | 36032 ft | 442 kts | 336° |
| 2026-04-21 17:43 | 23.86589 | 139.60297 | 36030 ft | 442 kts | 336° |
| 2026-04-21 17:43 | 23.92381 | 139.58185 | 36031 ft | 442 kts | 336° |
| 2026-04-21 17:44 | 23.98211 | 139.56057 | 36035 ft | 442 kts | 336° |
| 2026-04-21 17:44 | 24.04043 | 139.53927 | 36036 ft | 442 kts | 336° |
| 2026-04-21 17:45 | 24.09874 | 139.51794 | 36035 ft | 442 kts | 336° |
| 2026-04-21 17:45 | 24.15709 | 139.49659 | 36033 ft | 442 kts | 336° |
| 2026-04-21 17:46 | 24.21541 | 139.47522 | 36033 ft | 442 kts | 336° |
| 2026-04-21 17:46 | 24.27375 | 139.45383 | 36043 ft | 442 kts | 336° |
| 2026-04-21 17:47 | 24.33208 | 139.43242 | 36035 ft | 442 kts | 336° |
| 2026-04-21 17:47 | 24.39013 | 139.41109 | 36036 ft | 442 kts | 336° |
| 2026-04-21 17:48 | 24.44842 | 139.38965 | 36035 ft | 442 kts | 336° |
| 2026-04-21 17:48 | 24.50677 | 139.36817 | 36055 ft | 442 kts | 336° |
| 2026-04-21 17:49 | 24.56514 | 139.34666 | 36041 ft | 442 kts | 336° |
| 2026-04-21 17:49 | 24.62342 | 139.32516 | 36039 ft | 442 kts | 336° |
| 2026-04-21 17:50 | 24.68170 | 139.30364 | 36034 ft | 442 kts | 336° |
| 2026-04-21 17:50 | 24.73997 | 139.28211 | 36036 ft | 441 kts | 336° |
| 2026-04-21 17:51 | 24.79782 | 139.26070 | 36039 ft | 441 kts | 336° |
| 2026-04-21 17:51 | 24.85600 | 139.23915 | 36044 ft | 441 kts | 336° |
| 2026-04-21 17:52 | 24.91416 | 139.21759 | 36057 ft | 441 kts | 336° |
| 2026-04-21 17:52 | 24.97228 | 139.19602 | 36042 ft | 441 kts | 336° |
| 2026-04-21 17:53 | 25.03042 | 139.17446 | 36040 ft | 441 kts | 336° |
| 2026-04-21 17:53 | 25.08868 | 139.15310 | 36042 ft | 441 kts | 336° |
| 2026-04-21 17:54 | 25.14687 | 139.13181 | 36050 ft | 441 kts | 336° |
| 2026-04-21 17:54 | 25.20505 | 139.11046 | 36048 ft | 441 kts | 336° |
| 2026-04-21 17:55 | 25.26332 | 139.08905 | 36045 ft | 441 kts | 336° |
| 2026-04-21 17:55 | 25.32113 | 139.06778 | 36048 ft | 440 kts | 336° |
| 2026-04-21 17:56 | 25.37926 | 139.04636 | 36056 ft | 440 kts | 336° |
| 2026-04-21 17:56 | 25.43746 | 139.02489 | 36045 ft | 440 kts | 336° |
| 2026-04-21 17:57 | 25.49557 | 139.00344 | 36046 ft | 440 kts | 336° |
| 2026-04-21 17:57 | 25.54385 | 138.98560 | 36056 ft | 440 kts | 336° |
| 2026-04-21 17:58 | 25.60196 | 138.96411 | 36048 ft | 440 kts | 336° |
| 2026-04-21 17:58 | 25.66951 | 138.93910 | 36047 ft | 440 kts | 336° |
| 2026-04-21 17:59 | 25.71816 | 138.92106 | 36045 ft | 440 kts | 336° |
| 2026-04-21 17:59 | 25.77623 | 138.89952 | 36058 ft | 440 kts | 336° |
| 2026-04-21 18:00 | 25.83396 | 138.87808 | 36049 ft | 440 kts | 336° |
| 2026-04-21 18:00 | 25.89213 | 138.85645 | 36046 ft | 440 kts | 336° |
| 2026-04-21 18:01 | 25.95021 | 138.83484 | 36048 ft | 440 kts | 336° |
| 2026-04-21 18:01 | 26.00830 | 138.81320 | 36048 ft | 440 kts | 336° |
| 2026-04-21 18:02 | 26.06642 | 138.79152 | 36048 ft | 441 kts | 336° |
| 2026-04-21 18:02 | 26.12456 | 138.76982 | 36048 ft | 440 kts | 336° |
| 2026-04-21 18:03 | 26.18237 | 138.74821 | 36057 ft | 441 kts | 336° |
| 2026-04-21 18:03 | 26.24054 | 138.72645 | 36050 ft | 441 kts | 336° |
| 2026-04-21 18:04 | 26.29875 | 138.70465 | 36052 ft | 441 kts | 336° |
| 2026-04-21 18:04 | 26.35692 | 138.68284 | 36043 ft | 441 kts | 336° |
| 2026-04-21 18:05 | 26.41507 | 138.66102 | 36046 ft | 441 kts | 335° |
| 2026-04-21 18:05 | 26.47333 | 138.63913 | 36047 ft | 441 kts | 336° |
| 2026-04-21 18:06 | 26.53156 | 138.61723 | 36045 ft | 441 kts | 335° |
| 2026-04-21 18:06 | 26.58980 | 138.59530 | 36058 ft | 442 kts | 335° |
| 2026-04-21 18:07 | 26.64808 | 138.57334 | 36043 ft | 442 kts | 335° |
| 2026-04-21 18:07 | 26.70633 | 138.55136 | 36043 ft | 442 kts | 335° |
| 2026-04-21 18:08 | 26.76460 | 138.52935 | 36047 ft | 442 kts | 335° |
| 2026-04-21 18:08 | 26.82282 | 138.50733 | 36046 ft | 442 kts | 335° |
| 2026-04-21 18:09 | 26.88104 | 138.48530 | 36046 ft | 442 kts | 335° |
| 2026-04-21 18:09 | 26.93925 | 138.46324 | 36047 ft | 441 kts | 335° |
| 2026-04-21 18:10 | 26.99712 | 138.44128 | 36057 ft | 441 kts | 335° |
| 2026-04-21 18:10 | 27.05532 | 138.41918 | 36044 ft | 441 kts | 335° |
| 2026-04-21 18:11 | 27.11353 | 138.39705 | 36048 ft | 441 kts | 335° |
| 2026-04-21 18:11 | 27.17166 | 138.37492 | 36050 ft | 441 kts | 335° |
| 2026-04-21 18:12 | 27.22982 | 138.35276 | 36047 ft | 441 kts | 335° |
| 2026-04-21 18:12 | 27.28797 | 138.33058 | 36041 ft | 441 kts | 335° |
| 2026-04-21 18:13 | 27.34574 | 138.30852 | 36044 ft | 441 kts | 335° |
| 2026-04-21 18:13 | 27.40389 | 138.28629 | 36053 ft | 441 kts | 335° |
| 2026-04-21 18:14 | 27.49102 | 138.25293 | 36042 ft | 441 kts | 335° |
| 2026-04-21 18:15 | 27.54914 | 138.23065 | 36043 ft | 441 kts | 335° |
| 2026-04-21 18:15 | 27.60719 | 138.20837 | 36044 ft | 441 kts | 335° |
| 2026-04-21 18:16 | 27.66528 | 138.18605 | 36038 ft | 441 kts | 335° |
| 2026-04-21 18:16 | 27.72332 | 138.16372 | 36039 ft | 441 kts | 335° |
| 2026-04-21 18:17 | 27.78135 | 138.14137 | 36048 ft | 441 kts | 334° |
| 2026-04-21 18:17 | 27.83940 | 138.11899 | 36038 ft | 441 kts | 334° |
| 2026-04-21 18:18 | 27.89742 | 138.09660 | 36036 ft | 441 kts | 334° |
| 2026-04-21 18:18 | 27.95511 | 138.07431 | 36039 ft | 440 kts | 334° |
| 2026-04-21 18:19 | 28.01321 | 138.05183 | 36042 ft | 441 kts | 334° |
| 2026-04-21 18:19 | 28.07130 | 138.02933 | 36036 ft | 441 kts | 334° |
| 2026-04-21 18:20 | 28.12948 | 138.00677 | 36025 ft | 442 kts | 334° |
| 2026-04-21 18:20 | 28.18727 | 137.98434 | 36037 ft | 442 kts | 334° |
| 2026-04-21 18:21 | 28.24548 | 137.96172 | 36035 ft | 442 kts | 334° |
| 2026-04-21 18:21 | 28.30378 | 137.93903 | 36033 ft | 443 kts | 334° |
| 2026-04-21 18:22 | 28.36211 | 137.91631 | 36046 ft | 443 kts | 334° |
| 2026-04-21 18:22 | 28.42047 | 137.89355 | 36037 ft | 444 kts | 334° |
| 2026-04-21 18:23 | 28.47895 | 137.87072 | 36031 ft | 444 kts | 334° |
| 2026-04-21 18:23 | 28.53741 | 137.84787 | 36048 ft | 444 kts | 334° |
| 2026-04-21 18:24 | 28.59551 | 137.82513 | 36036 ft | 444 kts | 334° |
| 2026-04-21 18:24 | 28.65403 | 137.80220 | 36030 ft | 445 kts | 334° |
| 2026-04-21 18:25 | 28.71257 | 137.77924 | 36032 ft | 445 kts | 334° |
| 2026-04-21 18:25 | 28.77118 | 137.75622 | 36033 ft | 445 kts | 334° |
| 2026-04-21 18:26 | 28.82978 | 137.73318 | 36032 ft | 445 kts | 334° |
| 2026-04-21 18:26 | 28.88840 | 137.71010 | 36034 ft | 446 kts | 334° |
| 2026-04-21 18:27 | 28.94705 | 137.68698 | 36032 ft | 446 kts | 334° |
| 2026-04-21 18:27 | 29.00548 | 137.66393 | 36034 ft | 446 kts | 334° |
| 2026-04-21 18:28 | 29.06416 | 137.64074 | 36039 ft | 446 kts | 334° |
| 2026-04-21 18:28 | 29.12289 | 137.61751 | 36051 ft | 446 kts | 334° |
| 2026-04-21 18:29 | 29.18162 | 137.59425 | 36045 ft | 447 kts | 334° |
| 2026-04-21 18:29 | 29.24032 | 137.57098 | 36038 ft | 446 kts | 334° |
| 2026-04-21 18:30 | 29.29899 | 137.54768 | 36054 ft | 446 kts | 334° |
| 2026-04-21 18:30 | 29.35770 | 137.52435 | 36043 ft | 446 kts | 334° |
| 2026-04-21 18:31 | 29.41635 | 137.50100 | 36047 ft | 446 kts | 334° |
| 2026-04-21 18:31 | 29.47501 | 137.47763 | 36056 ft | 446 kts | 334° |
| 2026-04-21 18:32 | 29.53373 | 137.45420 | 36049 ft | 447 kts | 334° |
| 2026-04-21 18:32 | 29.59241 | 137.43076 | 36044 ft | 447 kts | 334° |
| 2026-04-21 18:33 | 29.65076 | 137.40742 | 36047 ft | 447 kts | 334° |
| 2026-04-21 18:33 | 29.70577 | 137.37710 | 36068 ft | 432 kts | 318° |
| 2026-04-21 18:34 | 29.75777 | 137.34121 | 36054 ft | 441 kts | 327° |
| 2026-04-21 18:34 | 29.81496 | 137.31425 | 36055 ft | 447 kts | 333° |
| 2026-04-21 18:35 | 29.86406 | 137.29479 | 36057 ft | 449 kts | 334° |
| 2026-04-21 18:35 | 29.93320 | 137.26756 | 36048 ft | 449 kts | 334° |
| 2026-04-21 18:36 | 29.99179 | 137.24396 | 36056 ft | 449 kts | 333° |
| 2026-04-21 18:36 | 30.05084 | 137.22011 | 36054 ft | 450 kts | 333° |
| 2026-04-21 18:37 | 30.10994 | 137.19624 | 36051 ft | 450 kts | 333° |
| 2026-04-21 18:37 | 30.16903 | 137.17235 | 36054 ft | 450 kts | 333° |
| 2026-04-21 18:38 | 30.22821 | 137.14838 | 36068 ft | 450 kts | 333° |
| 2026-04-21 18:38 | 30.28736 | 137.12440 | 36055 ft | 451 kts | 333° |
| 2026-04-21 18:39 | 30.34652 | 137.10038 | 36053 ft | 451 kts | 333° |
| 2026-04-21 18:39 | 30.40571 | 137.07632 | 36062 ft | 451 kts | 333° |
| 2026-04-21 18:40 | 30.46504 | 137.05216 | 36057 ft | 451 kts | 333° |
| 2026-04-21 18:40 | 30.51426 | 137.03210 | 36055 ft | 451 kts | 333° |
| 2026-04-21 18:41 | 30.58350 | 137.00385 | 36056 ft | 451 kts | 333° |
| 2026-04-21 18:41 | 30.64237 | 136.97979 | 36053 ft | 451 kts | 333° |
| 2026-04-21 18:42 | 30.70158 | 136.95556 | 36050 ft | 451 kts | 333° |
| 2026-04-21 18:42 | 30.76079 | 136.93130 | 36063 ft | 451 kts | 333° |
| 2026-04-21 18:43 | 30.82010 | 136.90696 | 36056 ft | 451 kts | 333° |
| 2026-04-21 18:43 | 30.87937 | 136.88262 | 36054 ft | 451 kts | 333° |
| 2026-04-21 18:44 | 30.93827 | 136.85839 | 36063 ft | 452 kts | 333° |
| 2026-04-21 18:44 | 30.99757 | 136.83396 | 36056 ft | 452 kts | 333° |
| 2026-04-21 18:45 | 31.05685 | 136.80951 | 36057 ft | 451 kts | 333° |
| 2026-04-21 18:45 | 31.11609 | 136.78505 | 36063 ft | 452 kts | 332° |
| 2026-04-21 18:46 | 31.17528 | 136.76057 | 36050 ft | 451 kts | 332° |
| 2026-04-21 18:46 | 31.23442 | 136.73608 | 36063 ft | 451 kts | 332° |
| 2026-04-21 18:47 | 31.29359 | 136.71154 | 36068 ft | 451 kts | 332° |
| 2026-04-21 18:47 | 31.35275 | 136.68697 | 36068 ft | 451 kts | 332° |
| 2026-04-21 18:48 | 31.40188 | 136.66655 | 36062 ft | 451 kts | 332° |
| 2026-04-21 18:48 | 31.46098 | 136.64195 | 36071 ft | 451 kts | 332° |
| 2026-04-21 18:49 | 31.52978 | 136.61329 | 36069 ft | 451 kts | 332° |
| 2026-04-21 18:49 | 31.56934 | 136.59678 | 36070 ft | 451 kts | 332° |
| 2026-04-21 18:50 | 31.63850 | 136.56789 | 36071 ft | 451 kts | 332° |
| 2026-04-21 18:50 | 31.69769 | 136.54312 | 36069 ft | 451 kts | 332° |
| 2026-04-21 18:51 | 31.75650 | 136.51848 | 36079 ft | 451 kts | 332° |
| 2026-04-21 18:51 | 31.81564 | 136.49367 | 36082 ft | 451 kts | 332° |
| 2026-04-21 18:52 | 31.87477 | 136.46883 | 36064 ft | 451 kts | 332° |
| 2026-04-21 18:52 | 31.93381 | 136.44400 | 36085 ft | 450 kts | 332° |
| 2026-04-21 18:53 | 31.99271 | 136.41919 | 36075 ft | 449 kts | 332° |
| 2026-04-21 18:53 | 32.05152 | 136.39438 | 36069 ft | 448 kts | 332° |
| 2026-04-21 18:54 | 32.11015 | 136.36961 | 36093 ft | 447 kts | 332° |
| 2026-04-21 18:54 | 32.16864 | 136.34486 | 36069 ft | 446 kts | 332° |
| 2026-04-21 18:55 | 32.22697 | 136.32015 | 36072 ft | 445 kts | 332° |
| 2026-04-21 18:55 | 32.28519 | 136.29545 | 36069 ft | 444 kts | 332° |
| 2026-04-21 18:56 | 32.34333 | 136.27075 | 36070 ft | 443 kts | 332° |
| 2026-04-21 18:56 | 32.40132 | 136.24603 | 36072 ft | 443 kts | 332° |
| 2026-04-21 18:57 | 32.45935 | 136.22123 | 36087 ft | 444 kts | 331° |
| 2026-04-21 18:57 | 32.51741 | 136.19637 | 36076 ft | 444 kts | 331° |
| 2026-04-21 18:58 | 32.57510 | 136.17166 | 36072 ft | 444 kts | 331° |
| 2026-04-21 18:58 | 32.63322 | 136.14672 | 36076 ft | 444 kts | 331° |
| 2026-04-21 18:59 | 32.69129 | 136.12177 | 36069 ft | 444 kts | 331° |
| 2026-04-21 18:59 | 32.74939 | 136.09681 | 36072 ft | 444 kts | 331° |
| 2026-04-21 19:00 | 32.80745 | 136.07189 | 36076 ft | 443 kts | 331° |
| 2026-04-21 19:00 | 32.86543 | 136.04695 | 36070 ft | 442 kts | 331° |
| 2026-04-21 19:00 | 32.89436 | 136.03450 | 35969 ft | 443 kts | 331° |
| 2026-04-21 19:01 | 32.92351 | 136.02190 | 35425 ft | 446 kts | 331° |
| 2026-04-21 19:01 | 32.95265 | 136.00934 | 34839 ft | 445 kts | 331° |
| 2026-04-21 19:01 | 32.98179 | 135.99676 | 34212 ft | 446 kts | 332° |
| 2026-04-21 19:01 | 33.01101 | 135.98413 | 33478 ft | 448 kts | 332° |
| 2026-04-21 19:02 | 33.04015 | 135.97156 | 33019 ft | 443 kts | 332° |
| 2026-04-21 19:02 | 33.06904 | 135.95909 | 32517 ft | 440 kts | 332° |
| 2026-04-21 19:02 | 33.09763 | 135.94674 | 32068 ft | 436 kts | 331° |
| 2026-04-21 19:02 | 33.12606 | 135.93443 | 31600 ft | 432 kts | 331° |
| 2026-04-21 19:03 | 33.15387 | 135.92237 | 31144 ft | 429 kts | 331° |
| 2026-04-21 19:03 | 33.18185 | 135.91021 | 30685 ft | 426 kts | 331° |
| 2026-04-21 19:03 | 33.20964 | 135.89814 | 30215 ft | 424 kts | 332° |
| 2026-04-21 19:03 | 33.23729 | 135.88613 | 29687 ft | 421 kts | 332° |
| 2026-04-21 19:04 | 33.26472 | 135.87421 | 29218 ft | 417 kts | 332° |
| 2026-04-21 19:04 | 33.29187 | 135.86237 | 28711 ft | 413 kts | 332° |
| 2026-04-21 19:04 | 33.31877 | 135.85062 | 28231 ft | 409 kts | 332° |
| 2026-04-21 19:04 | 33.34540 | 135.83897 | 27765 ft | 406 kts | 332° |
| 2026-04-21 19:05 | 33.37177 | 135.82743 | 27309 ft | 402 kts | 332° |
| 2026-04-21 19:05 | 33.39789 | 135.81600 | 26860 ft | 398 kts | 332° |
| 2026-04-21 19:05 | 33.42429 | 135.80579 | 26417 ft | 403 kts | 341° |
| 2026-04-21 19:05 | 33.45270 | 135.80373 | 25974 ft | 416 kts | 356° |
| 2026-04-21 19:06 | 33.48141 | 135.81046 | 25544 ft | 428 kts | 12° |
| 2026-04-21 19:06 | 33.50897 | 135.82433 | 25126 ft | 430 kts | 17° |
| 2026-04-21 19:06 | 33.53613 | 135.83920 | 24670 ft | 429 kts | 18° |
| 2026-04-21 19:06 | 33.56317 | 135.85426 | 24227 ft | 427 kts | 18° |
| 2026-04-21 19:07 | 33.58971 | 135.86895 | 23795 ft | 425 kts | 18° |
| 2026-04-21 19:07 | 33.61652 | 135.88364 | 23300 ft | 422 kts | 18° |
| 2026-04-21 19:07 | 33.64321 | 135.89812 | 22849 ft | 419 kts | 17° |
| 2026-04-21 19:07 | 33.66969 | 135.91240 | 22379 ft | 415 kts | 17° |
| 2026-04-21 19:08 | 33.69589 | 135.92648 | 21967 ft | 411 kts | 17° |
| 2026-04-21 19:08 | 33.72196 | 135.94045 | 21525 ft | 409 kts | 17° |
| 2026-04-21 19:08 | 33.74783 | 135.95431 | 21100 ft | 406 kts | 17° |
| 2026-04-21 19:08 | 33.77359 | 135.96812 | 20676 ft | 404 kts | 17° |
| 2026-04-21 19:09 | 33.79920 | 135.98187 | 20260 ft | 402 kts | 17° |
| 2026-04-21 19:09 | 33.82473 | 135.99558 | 19857 ft | 400 kts | 18° |
| 2026-04-21 19:09 | 33.85011 | 136.00923 | 19437 ft | 399 kts | 18° |
| 2026-04-21 19:09 | 33.87536 | 136.02281 | 19009 ft | 397 kts | 18° |
| 2026-04-21 19:10 | 33.90064 | 136.03641 | 18594 ft | 396 kts | 18° |
| 2026-04-21 19:10 | 33.92574 | 136.04993 | 18126 ft | 395 kts | 18° |
| 2026-04-21 19:10 | 33.95078 | 136.06344 | 17658 ft | 392 kts | 18° |
| 2026-04-21 19:10 | 33.97555 | 136.07683 | 17234 ft | 388 kts | 18° |
| 2026-04-21 19:11 | 34.00005 | 136.09007 | 16817 ft | 385 kts | 18° |
| 2026-04-21 19:11 | 34.02441 | 136.10323 | 16400 ft | 382 kts | 18° |
| 2026-04-21 19:11 | 34.04854 | 136.11628 | 15991 ft | 378 kts | 18° |
| 2026-04-21 19:11 | 34.07242 | 136.12920 | 15610 ft | 375 kts | 19° |
| 2026-04-21 19:12 | 34.09611 | 136.14202 | 15206 ft | 373 kts | 19° |
| 2026-04-21 19:12 | 34.11970 | 136.15478 | 14809 ft | 371 kts | 19° |
| 2026-04-21 19:12 | 34.14318 | 136.16750 | 14417 ft | 369 kts | 19° |
| 2026-04-21 19:12 | 34.16658 | 136.18019 | 13988 ft | 367 kts | 20° |
| 2026-04-21 19:13 | 34.18972 | 136.19303 | 13590 ft | 365 kts | 22° |
| 2026-04-21 19:13 | 34.21109 | 136.20939 | 13292 ft | 363 kts | 32° |
| 2026-04-21 19:13 | 34.23086 | 136.22757 | 12919 ft | 360 kts | 34° |
| 2026-04-21 19:13 | 34.25059 | 136.24614 | 12531 ft | 358 kts | 34° |
| 2026-04-21 19:14 | 34.27020 | 136.26454 | 12148 ft | 356 kts | 34° |
| 2026-04-21 19:14 | 34.28975 | 136.28271 | 11757 ft | 353 kts | 34° |
| 2026-04-21 19:14 | 34.30924 | 136.30064 | 11387 ft | 351 kts | 34° |
| 2026-04-21 19:14 | 34.32868 | 136.31843 | 11001 ft | 349 kts | 34° |
| 2026-04-21 19:15 | 34.34800 | 136.33608 | 10651 ft | 346 kts | 34° |
| 2026-04-21 19:15 | 34.36685 | 136.35333 | 10593 ft | 332 kts | 34° |
| 2026-04-21 19:15 | 34.38511 | 136.37002 | 10592 ft | 324 kts | 34° |
| 2026-04-21 19:15 | 34.40275 | 136.38616 | 10387 ft | 315 kts | 34° |
| 2026-04-21 19:16 | 34.41893 | 136.40359 | 10018 ft | 310 kts | 50° |
| 2026-04-21 19:16 | 34.42901 | 136.42660 | 9608 ft | 306 kts | 65° |
| 2026-04-21 19:16 | 34.43740 | 136.44998 | 9259 ft | 299 kts | 65° |
| 2026-04-21 19:16 | 34.44556 | 136.47278 | 8960 ft | 290 kts | 65° |
| 2026-04-21 19:17 | 34.46142 | 136.51677 | 8435 ft | 286 kts | 65° |
| 2026-04-21 19:17 | 34.46943 | 136.53884 | 8152 ft | 286 kts | 65° |
| 2026-04-21 19:17 | 34.47748 | 136.56093 | 7868 ft | 286 kts | 65° |
| 2026-04-21 19:18 | 34.48550 | 136.58293 | 7595 ft | 285 kts | 65° |
| 2026-04-21 19:18 | 34.49349 | 136.60488 | 7310 ft | 284 kts | 65° |
| 2026-04-21 19:18 | 34.50147 | 136.62678 | 7024 ft | 284 kts | 65° |
| 2026-04-21 19:18 | 34.50942 | 136.64860 | 6755 ft | 282 kts | 65° |
| 2026-04-21 19:19 | 34.51733 | 136.67032 | 6470 ft | 281 kts | 66° |
| 2026-04-21 19:19 | 34.52521 | 136.69194 | 6180 ft | 279 kts | 66° |
| 2026-04-21 19:19 | 34.53303 | 136.71343 | 5898 ft | 278 kts | 67° |
| 2026-04-21 19:19 | 34.54079 | 136.73478 | 5631 ft | 275 kts | 67° |
| 2026-04-21 19:20 | 34.54839 | 136.75571 | 5516 ft | 267 kts | 68° |
| 2026-04-21 19:20 | 34.55567 | 136.77575 | 5391 ft | 259 kts | 68° |
| 2026-04-21 19:20 | 34.56287 | 136.79558 | 5273 ft | 255 kts | 68° |
| 2026-04-21 19:20 | 34.57000 | 136.81525 | 5177 ft | 255 kts | 68° |
| 2026-04-21 19:21 | 34.57715 | 136.83498 | 5059 ft | 256 kts | 68° |
| 2026-04-21 19:21 | 34.58483 | 136.85483 | 4790 ft | 264 kts | 59° |
| 2026-04-21 19:21 | 34.59838 | 136.86935 | 4489 ft | 262 kts | 24° |
| 2026-04-21 19:21 | 34.61603 | 136.87154 | 4284 ft | 255 kts | 347° |
| 2026-04-21 19:22 | 34.63192 | 136.86415 | 4194 ft | 236 kts | 340° |
| 2026-04-21 19:22 | 34.64720 | 136.85801 | 3912 ft | 226 kts | 344° |
| 2026-04-21 19:22 | 34.66223 | 136.85309 | 3606 ft | 222 kts | 348° |
| 2026-04-21 19:22 | 34.67719 | 136.84914 | 3328 ft | 218 kts | 351° |
| 2026-04-21 19:23 | 34.69193 | 136.84556 | 3052 ft | 214 kts | 351° |
| 2026-04-21 19:23 | 34.70631 | 136.84210 | 2770 ft | 211 kts | 351° |
| 2026-04-21 19:23 | 34.72060 | 136.83866 | 2481 ft | 206 kts | 351° |
| 2026-04-21 19:23 | 34.73423 | 136.83536 | 2207 ft | 194 kts | 351° |
| 2026-04-21 19:24 | 34.74711 | 136.83225 | 1946 ft | 184 kts | 351° |
| 2026-04-21 19:24 | 34.75942 | 136.82928 | 1714 ft | 178 kts | 351° |
| 2026-04-21 19:24 | 34.77120 | 136.82643 | 1518 ft | 164 kts | 351° |
| 2026-04-21 19:24 | 34.78208 | 136.82380 | 1263 ft | 153 kts | 351° |
| 2026-04-21 19:25 | 34.79241 | 136.82131 | 1055 ft | 149 kts | 351° |
| 2026-04-21 19:25 | 34.80249 | 136.81889 | 865 ft | 146 kts | 349° |
| 2026-04-21 19:25 | 34.81242 | 136.81649 | 669 ft | 144 kts | 349° |
| 2026-04-21 19:25 | 34.82209 | 136.81415 | 473 ft | 141 kts | 348° |
| 2026-04-21 19:26 | 34.83161 | 136.81188 | 289 ft | 138 kts | 347° |
| 2026-04-21 19:26 | 34.84099 | 136.80951 | 112 ft | 138 kts | 348° |
| 2026-04-21 19:26 | 34.85029 | 136.80735 | 29 ft | 129 kts | 347° |
| 2026-04-21 19:26 | 34.85749 | 136.80558 | 23 ft | 75 kts | 349° |
| 2026-04-21 19:27 | 34.86047 | 136.80490 | 25 ft | 12 kts | 359° |
| 2026-04-21 19:27 | 34.86139 | 136.80500 | 26 ft | 20 kts | 8° |
| 2026-04-21 19:27 | 34.86277 | 136.80546 | 26 ft | 20 kts | 18° |
| 2026-04-21 19:27 | 34.86319 | 136.80650 | 27 ft | 15 kts | 125° |
| 2026-04-21 19:28 | 34.86223 | 136.80690 | 27 ft | 15 kts | 167° |
| 2026-04-21 19:28 | 34.86126 | 136.80714 | 27 ft | 14 kts | 169° |
| 2026-04-21 19:28 | 34.86026 | 136.80739 | 27 ft | 16 kts | 168° |
| 2026-04-21 19:28 | 34.85909 | 136.80766 | 27 ft | 19 kts | 169° |
| 2026-04-21 19:29 | 34.85769 | 136.80799 | 27 ft | 21 kts | 169° |
| 2026-04-21 19:29 | 34.85633 | 136.80832 | 27 ft | 19 kts | 168° |
| 2026-04-21 19:29 | 34.85568 | 136.80909 | 27 ft | 14 kts | 84° |
| 2026-04-21 19:29 | 34.85586 | 136.81025 | 27 ft | 15 kts | 78° |
| 2026-04-21 19:30 | 34.85609 | 136.81163 | 27 ft | 18 kts | 79° |
| 2026-04-21 19:30 | 34.85600 | 136.81281 | 27 ft | 12 kts | 107° |
| 2026-04-21 19:30 | 34.85612 | 136.81356 | 27 ft | 7 kts | 78° |
| 2026-04-21 19:30 | 34.85615 | 136.81373 | 27 ft | 0 kts | 78° |
| 2026-04-21 19:31 | 34.85615 | 136.81377 | 27 ft | 1 kts | 78° |
| 2026-04-21 19:31 | 34.85616 | 136.81381 | 27 ft | 0 kts | 78° |
| 2026-04-21 19:31 | 34.85616 | 136.81383 | 27 ft | 0 kts | 78° |
| 2026-04-21 19:32 | 34.85616 | 136.81379 | 27 ft | 0 kts | 78° |
| 2026-04-21 19:55 | 34.85615 | 136.81378 | 55 ft | 2 kts | 78° |
| 2026-04-21 19:55 | 34.85612 | 136.81351 | 27 ft | 3 kts | 88° |
| 2026-04-21 19:55 | 34.85613 | 136.81323 | 27 ft | 3 kts | 102° |
| 2026-04-21 19:55 | 34.85620 | 136.81296 | 27 ft | 3 kts | 121° |
| 2026-04-21 19:56 | 34.85635 | 136.81276 | 27 ft | 3 kts | 156° |
| 2026-04-21 19:56 | 34.85642 | 136.81273 | 27 ft | 0 kts | 169° |
| 2026-04-21 19:58 | 34.85609 | 136.81280 | 27 ft | 12 kts | 168° |
| 2026-04-21 19:58 | 34.85507 | 136.81306 | 27 ft | 17 kts | 168° |
| 2026-04-21 19:58 | 34.85386 | 136.81334 | 27 ft | 16 kts | 181° |
| 2026-04-21 19:59 | 34.85347 | 136.81252 | 27 ft | 12 kts | 258° |
| 2026-04-21 19:59 | 34.85328 | 136.81132 | 27 ft | 16 kts | 259° |
| 2026-04-21 19:59 | 34.85284 | 136.81031 | 27 ft | 12 kts | 181° |
| 2026-04-21 19:59 | 34.85197 | 136.81051 | 27 ft | 15 kts | 168° |
| 2026-04-21 20:00 | 34.85080 | 136.81079 | 27 ft | 19 kts | 169° |
| 2026-04-21 20:00 | 34.84954 | 136.81108 | 27 ft | 18 kts | 169° |
| 2026-04-21 20:00 | 34.84832 | 136.81137 | 27 ft | 17 kts | 168° |
| 2026-04-21 20:00 | 34.84713 | 136.81166 | 27 ft | 19 kts | 169° |
| 2026-04-21 20:01 | 34.84586 | 136.81196 | 27 ft | 19 kts | 168° |
| 2026-04-21 20:01 | 34.84450 | 136.81229 | 27 ft | 21 kts | 169° |
| 2026-04-21 20:01 | 34.84349 | 136.81173 | 27 ft | 18 kts | 256° |
| 2026-04-21 20:01 | 34.84322 | 136.81020 | 26 ft | 20 kts | 260° |
| 2026-04-21 20:02 | 34.84343 | 136.80895 | 22 ft | 11 kts | 341° |
| 2026-04-21 20:02 | 34.84510 | 136.80854 | 24 ft | 57 kts | 349° |
| 2026-04-21 20:02 | 34.85136 | 136.80704 | 26 ft | 124 kts | 349° |
| 2026-04-21 20:02 | 34.86170 | 136.80460 | 97 ft | 172 kts | 349° |
| 2026-04-21 20:03 | 34.87400 | 136.80180 | 726 ft | 181 kts | 348° |
| 2026-04-21 20:03 | 34.88494 | 136.79459 | 1477 ft | 190 kts | 306° |
| 2026-04-21 20:03 | 34.88873 | 136.77972 | 2095 ft | 190 kts | 261° |
| 2026-04-21 20:03 | 34.88355 | 136.76549 | 2653 ft | 186 kts | 223° |
| 2026-04-21 20:04 | 34.87386 | 136.75483 | 3233 ft | 188 kts | 217° |
| 2026-04-21 20:04 | 34.86332 | 136.74373 | 3482 ft | 211 kts | 217° |
| 2026-04-21 20:04 | 34.85168 | 136.73145 | 3650 ft | 232 kts | 218° |
| 2026-04-21 20:04 | 34.83865 | 136.71841 | 3835 ft | 253 kts | 208° |
| 2026-04-21 20:05 | 34.82177 | 136.71325 | 4370 ft | 255 kts | 173° |
| 2026-04-21 20:05 | 34.80436 | 136.71705 | 5084 ft | 256 kts | 167° |
| 2026-04-21 20:05 | 34.78664 | 136.72153 | 5756 ft | 264 kts | 168° |
| 2026-04-21 20:05 | 34.76888 | 136.72837 | 6499 ft | 276 kts | 150° |
| 2026-04-21 20:06 | 34.75511 | 136.74495 | 7264 ft | 283 kts | 123° |
| 2026-04-21 20:06 | 34.74516 | 136.76578 | 8103 ft | 288 kts | 120° |
| 2026-04-21 20:06 | 34.73546 | 136.78759 | 8844 ft | 297 kts | 120° |
| 2026-04-21 20:06 | 34.72557 | 136.80994 | 9643 ft | 304 kts | 120° |
| 2026-04-21 20:07 | 34.71534 | 136.83276 | 10349 ft | 313 kts | 121° |
| 2026-04-21 20:07 | 34.70440 | 136.85682 | 10579 ft | 339 kts | 121° |
| 2026-04-21 20:07 | 34.69273 | 136.88230 | 10886 ft | 358 kts | 121° |
| 2026-04-21 20:07 | 34.68060 | 136.90914 | 11521 ft | 367 kts | 118° |
| 2026-04-21 20:08 | 34.67318 | 136.93908 | 12248 ft | 375 kts | 99° |
| 2026-04-21 20:08 | 34.66988 | 136.97064 | 13014 ft | 379 kts | 98° |
| 2026-04-21 20:08 | 34.66658 | 137.00270 | 13726 ft | 386 kts | 98° |
| 2026-04-21 20:08 | 34.66309 | 137.03535 | 14337 ft | 393 kts | 99° |
| 2026-04-21 20:09 | 34.65942 | 137.06843 | 14952 ft | 399 kts | 99° |
| 2026-04-21 20:09 | 34.65560 | 137.10204 | 15564 ft | 404 kts | 99° |
| 2026-04-21 20:09 | 34.65165 | 137.13610 | 16186 ft | 410 kts | 99° |
| 2026-04-21 20:09 | 34.64761 | 137.17064 | 16777 ft | 416 kts | 99° |
| 2026-04-21 20:10 | 34.64349 | 137.20568 | 17366 ft | 423 kts | 99° |
| 2026-04-21 20:10 | 34.63930 | 137.24130 | 17936 ft | 429 kts | 99° |
| 2026-04-21 20:10 | 34.63504 | 137.27736 | 18507 ft | 434 kts | 99° |
| 2026-04-21 20:10 | 34.63073 | 137.31383 | 19035 ft | 438 kts | 99° |
| 2026-04-21 20:11 | 34.62638 | 137.35066 | 19603 ft | 442 kts | 99° |
| 2026-04-21 20:11 | 34.61984 | 137.38710 | 20126 ft | 443 kts | 113° |
| 2026-04-21 20:11 | 34.60781 | 137.42149 | 20667 ft | 444 kts | 118° |
| 2026-04-21 20:11 | 34.59469 | 137.45562 | 21175 ft | 448 kts | 118° |
| 2026-04-21 20:12 | 34.58167 | 137.48962 | 21671 ft | 453 kts | 118° |
| 2026-04-21 20:12 | 34.56851 | 137.52508 | 22178 ft | 457 kts | 117° |
| 2026-04-21 20:12 | 34.56002 | 137.54850 | 22506 ft | 460 kts | 117° |
| 2026-04-21 20:12 | 34.54300 | 137.59577 | 23170 ft | 463 kts | 118° |
| 2026-04-21 20:13 | 34.52845 | 137.63066 | 23624 ft | 465 kts | 123° |
| 2026-04-21 20:13 | 34.51244 | 137.66362 | 23986 ft | 467 kts | 126° |
| 2026-04-21 20:13 | 34.49528 | 137.69720 | 24375 ft | 470 kts | 126° |
| 2026-04-21 20:13 | 34.47794 | 137.73103 | 24776 ft | 473 kts | 126° |
| 2026-04-21 20:14 | 34.46070 | 137.76518 | 25168 ft | 476 kts | 126° |
| 2026-04-21 20:14 | 34.44355 | 137.79973 | 25556 ft | 479 kts | 126° |
| 2026-04-21 20:14 | 34.42648 | 137.83449 | 25959 ft | 482 kts | 125° |
| 2026-04-21 20:14 | 34.40937 | 137.86948 | 26307 ft | 485 kts | 126° |
| 2026-04-21 20:15 | 34.39209 | 137.90481 | 26644 ft | 489 kts | 126° |
| 2026-04-21 20:15 | 34.37469 | 137.94031 | 27002 ft | 491 kts | 126° |
| 2026-04-21 20:15 | 34.35719 | 137.97595 | 27363 ft | 494 kts | 126° |
| 2026-04-21 20:15 | 34.33888 | 138.01118 | 27692 ft | 493 kts | 131° |
| 2026-04-21 20:16 | 34.31717 | 138.04290 | 28024 ft | 487 kts | 142° |
| 2026-04-21 20:16 | 34.29252 | 138.07075 | 28374 ft | 485 kts | 145° |
| 2026-04-21 20:16 | 34.26766 | 138.09783 | 28693 ft | 488 kts | 145° |
| 2026-04-21 20:16 | 34.24230 | 138.12528 | 28997 ft | 491 kts | 146° |
| 2026-04-21 20:17 | 34.21679 | 138.15299 | 29296 ft | 494 kts | 145° |
| 2026-04-21 20:17 | 34.19125 | 138.18093 | 29605 ft | 496 kts | 145° |
| 2026-04-21 20:17 | 34.16569 | 138.20906 | 29918 ft | 499 kts | 145° |
| 2026-04-21 20:17 | 34.14003 | 138.23742 | 30216 ft | 501 kts | 145° |
| 2026-04-21 20:18 | 34.12299 | 138.25628 | 30379 ft | 503 kts | 145° |
| 2026-04-21 20:18 | 34.08845 | 138.29453 | 30700 ft | 506 kts | 145° |
| 2026-04-21 20:18 | 34.06246 | 138.32329 | 30947 ft | 508 kts | 145° |
| 2026-04-21 20:18 | 34.03638 | 138.35212 | 31212 ft | 509 kts | 145° |
| 2026-04-21 20:19 | 34.01028 | 138.38094 | 31555 ft | 508 kts | 145° |
| 2026-04-21 20:19 | 33.98425 | 138.40968 | 31949 ft | 506 kts | 145° |
| 2026-04-21 20:19 | 33.95827 | 138.43831 | 32343 ft | 505 kts | 145° |
| 2026-04-21 20:19 | 33.93237 | 138.46683 | 32658 ft | 504 kts | 145° |
| 2026-04-21 20:20 | 33.90649 | 138.49527 | 33019 ft | 503 kts | 145° |
| 2026-04-21 20:20 | 33.88069 | 138.52360 | 33366 ft | 502 kts | 145° |
| 2026-04-21 20:20 | 33.85485 | 138.55195 | 33681 ft | 501 kts | 145° |
| 2026-04-21 20:20 | 33.82908 | 138.58019 | 34015 ft | 501 kts | 145° |
| 2026-04-21 20:21 | 33.80334 | 138.60838 | 34304 ft | 500 kts | 145° |
| 2026-04-21 20:21 | 33.77772 | 138.63643 | 34629 ft | 498 kts | 145° |
| 2026-04-21 20:21 | 33.75211 | 138.66444 | 34908 ft | 497 kts | 145° |
| 2026-04-21 20:21 | 33.72646 | 138.69245 | 35097 ft | 499 kts | 145° |
| 2026-04-21 20:22 | 33.70113 | 138.72008 | 35312 ft | 499 kts | 145° |
| 2026-04-21 20:22 | 33.64983 | 138.77602 | 35887 ft | 496 kts | 146° |
| 2026-04-21 20:22 | 33.62428 | 138.80385 | 36137 ft | 496 kts | 146° |
| 2026-04-21 20:23 | 33.59874 | 138.83164 | 36371 ft | 496 kts | 146° |
| 2026-04-21 20:23 | 33.57311 | 138.85950 | 36618 ft | 496 kts | 146° |
| 2026-04-21 20:23 | 33.54761 | 138.88720 | 36859 ft | 495 kts | 146° |
| 2026-04-21 20:23 | 33.52204 | 138.91495 | 37044 ft | 495 kts | 146° |
| 2026-04-21 20:24 | 33.47066 | 138.97059 | 37070 ft | 499 kts | 146° |
| 2026-04-21 20:24 | 33.41927 | 139.02623 | 37052 ft | 495 kts | 146° |
| 2026-04-21 20:25 | 33.36839 | 139.08127 | 37066 ft | 491 kts | 146° |
| 2026-04-21 20:25 | 33.31770 | 139.13593 | 37063 ft | 490 kts | 146° |
| 2026-04-21 20:26 | 33.26732 | 139.19015 | 37062 ft | 490 kts | 146° |
| 2026-04-21 20:26 | 33.21667 | 139.24459 | 37064 ft | 490 kts | 146° |
| 2026-04-21 20:27 | 33.16597 | 139.29900 | 37067 ft | 490 kts | 146° |
| 2026-04-21 20:27 | 33.11525 | 139.35336 | 37039 ft | 490 kts | 146° |
| 2026-04-21 20:28 | 33.06449 | 139.40767 | 37054 ft | 490 kts | 146° |
| 2026-04-21 20:28 | 33.01366 | 139.46196 | 37062 ft | 490 kts | 146° |
| 2026-04-21 20:29 | 32.96284 | 139.51616 | 37048 ft | 490 kts | 146° |
| 2026-04-21 20:29 | 32.91204 | 139.57025 | 37058 ft | 490 kts | 146° |
| 2026-04-21 20:30 | 32.86123 | 139.62425 | 37064 ft | 490 kts | 146° |
| 2026-04-21 20:30 | 32.81039 | 139.67816 | 37049 ft | 488 kts | 148° |
| 2026-04-21 20:31 | 32.78332 | 139.70154 | 37052 ft | 474 kts | 160° |
| 2026-04-21 20:31 | 32.75403 | 139.71806 | 37076 ft | 460 kts | 169° |
| 2026-04-21 20:31 | 32.72372 | 139.72884 | 37062 ft | 448 kts | 179° |
| 2026-04-21 20:31 | 32.69321 | 139.73389 | 37083 ft | 440 kts | 183° |
| 2026-04-21 20:32 | 32.64249 | 139.74077 | 37044 ft | 441 kts | 183° |
| 2026-04-21 20:32 | 32.58147 | 139.74953 | 37052 ft | 442 kts | 182° |
| 2026-04-21 20:33 | 32.52030 | 139.75874 | 37061 ft | 443 kts | 182° |
| 2026-04-21 20:33 | 32.45905 | 139.76800 | 37038 ft | 444 kts | 182° |
| 2026-04-21 20:34 | 32.39771 | 139.77730 | 37057 ft | 445 kts | 182° |
| 2026-04-21 20:34 | 32.33620 | 139.78669 | 37054 ft | 445 kts | 182° |
| 2026-04-21 20:35 | 32.27468 | 139.79608 | 37056 ft | 446 kts | 182° |
| 2026-04-21 20:35 | 32.21356 | 139.80537 | 37051 ft | 445 kts | 181° |
| 2026-04-21 20:36 | 32.15210 | 139.81470 | 37054 ft | 445 kts | 181° |
| 2026-04-21 20:36 | 32.09074 | 139.82399 | 37052 ft | 444 kts | 182° |
| 2026-04-21 20:37 | 32.02953 | 139.83325 | 37050 ft | 443 kts | 181° |
| 2026-04-21 20:37 | 31.96842 | 139.84248 | 37056 ft | 442 kts | 181° |
| 2026-04-21 20:38 | 31.90752 | 139.85166 | 37058 ft | 441 kts | 181° |
| 2026-04-21 20:38 | 31.84675 | 139.86081 | 37045 ft | 439 kts | 181° |
| 2026-04-21 20:39 | 31.78655 | 139.86986 | 37052 ft | 439 kts | 181° |
| 2026-04-21 20:39 | 31.72603 | 139.87895 | 37057 ft | 438 kts | 181° |
| 2026-04-21 20:40 | 31.66561 | 139.88801 | 37057 ft | 437 kts | 181° |
| 2026-04-21 20:40 | 31.60528 | 139.89704 | 37058 ft | 437 kts | 181° |
| 2026-04-21 20:41 | 31.54489 | 139.90607 | 37058 ft | 437 kts | 181° |
| 2026-04-21 20:41 | 31.48452 | 139.91509 | 37057 ft | 437 kts | 181° |
| 2026-04-21 20:42 | 31.42415 | 139.92409 | 37053 ft | 437 kts | 181° |
| 2026-04-21 20:42 | 31.36374 | 139.93309 | 37057 ft | 438 kts | 181° |
| 2026-04-21 20:43 | 31.30323 | 139.94209 | 37060 ft | 438 kts | 181° |
| 2026-04-21 20:43 | 31.24307 | 139.95103 | 37048 ft | 439 kts | 181° |
| 2026-04-21 20:44 | 31.18247 | 139.96003 | 37069 ft | 439 kts | 181° |
| 2026-04-21 20:44 | 31.12184 | 139.96901 | 37063 ft | 440 kts | 181° |
| 2026-04-21 20:45 | 31.06106 | 139.97799 | 37044 ft | 440 kts | 181° |
| 2026-04-21 20:45 | 31.00025 | 139.98737 | 37058 ft | 444 kts | 178° |
| 2026-04-21 20:46 | 30.93992 | 140.00714 | 37061 ft | 453 kts | 170° |
| 2026-04-21 20:46 | 30.87984 | 140.02991 | 37065 ft | 454 kts | 170° |
| 2026-04-21 20:47 | 30.81968 | 140.05232 | 37058 ft | 453 kts | 171° |
| 2026-04-21 20:47 | 30.75950 | 140.07424 | 37064 ft | 453 kts | 171° |
| 2026-04-21 20:48 | 30.69930 | 140.09597 | 37061 ft | 453 kts | 171° |
| 2026-04-21 20:48 | 30.63910 | 140.11765 | 37051 ft | 452 kts | 171° |
| 2026-04-21 20:49 | 30.57901 | 140.13929 | 37059 ft | 452 kts | 171° |
| 2026-04-21 20:49 | 30.51886 | 140.16092 | 37062 ft | 452 kts | 171° |
| 2026-04-21 20:50 | 30.45882 | 140.18249 | 37048 ft | 452 kts | 171° |
| 2026-04-21 20:50 | 30.39919 | 140.20388 | 37056 ft | 452 kts | 171° |
| 2026-04-21 20:51 | 30.33913 | 140.22540 | 37062 ft | 452 kts | 171° |
| 2026-04-21 20:51 | 30.27907 | 140.24689 | 37040 ft | 452 kts | 171° |
| 2026-04-21 20:52 | 30.21906 | 140.26833 | 37061 ft | 452 kts | 171° |
| 2026-04-21 20:52 | 30.15892 | 140.28979 | 37061 ft | 452 kts | 171° |
| 2026-04-21 20:53 | 30.09866 | 140.31127 | 37046 ft | 453 kts | 171° |
| 2026-04-21 20:53 | 30.03843 | 140.33271 | 37058 ft | 453 kts | 171° |
| 2026-04-21 20:54 | 29.97814 | 140.35415 | 37064 ft | 453 kts | 171° |
| 2026-04-21 20:54 | 29.91820 | 140.37544 | 37064 ft | 454 kts | 171° |
| 2026-04-21 20:55 | 29.85786 | 140.39684 | 37051 ft | 453 kts | 170° |
| 2026-04-21 20:55 | 29.79747 | 140.41823 | 37060 ft | 453 kts | 170° |
| 2026-04-21 20:56 | 29.73715 | 140.43956 | 37060 ft | 454 kts | 170° |
| 2026-04-21 20:56 | 29.67679 | 140.46087 | 37060 ft | 454 kts | 170° |
| 2026-04-21 20:57 | 29.61641 | 140.48217 | 37063 ft | 454 kts | 170° |
| 2026-04-21 20:57 | 29.55645 | 140.50329 | 37061 ft | 453 kts | 170° |
| 2026-04-21 20:58 | 29.49615 | 140.52451 | 37037 ft | 453 kts | 170° |
| 2026-04-21 20:58 | 29.43590 | 140.54568 | 37056 ft | 453 kts | 170° |
| 2026-04-21 20:59 | 29.37549 | 140.56688 | 37068 ft | 453 kts | 170° |
| 2026-04-21 20:59 | 29.31515 | 140.58803 | 37063 ft | 454 kts | 170° |
| 2026-04-21 21:00 | 29.25475 | 140.60917 | 37065 ft | 454 kts | 170° |
| 2026-04-21 21:00 | 29.19428 | 140.63032 | 37065 ft | 454 kts | 170° |
| 2026-04-21 21:01 | 29.13373 | 140.65146 | 37072 ft | 455 kts | 170° |
| 2026-04-21 21:01 | 29.07315 | 140.67259 | 37061 ft | 455 kts | 170° |
| 2026-04-21 21:02 | 29.01291 | 140.69358 | 37057 ft | 455 kts | 170° |
| 2026-04-21 21:02 | 28.95237 | 140.71464 | 37066 ft | 455 kts | 170° |
| 2026-04-21 21:03 | 28.89173 | 140.73572 | 37061 ft | 455 kts | 170° |
| 2026-04-21 21:03 | 28.83116 | 140.75674 | 37071 ft | 455 kts | 170° |
| 2026-04-21 21:04 | 28.77061 | 140.77774 | 37068 ft | 455 kts | 170° |
| 2026-04-21 21:04 | 28.71007 | 140.79870 | 37068 ft | 455 kts | 170° |
| 2026-04-21 21:05 | 28.64944 | 140.81965 | 37070 ft | 458 kts | 170° |
| 2026-04-21 21:06 | 28.55381 | 140.85260 | 37083 ft | 469 kts | 170° |
| 2026-04-21 21:06 | 28.52260 | 140.86337 | 37077 ft | 469 kts | 170° |
| 2026-04-21 21:06 | 28.47057 | 140.88133 | 37063 ft | 471 kts | 169° |
| 2026-04-21 21:07 | 28.40783 | 140.90295 | 37073 ft | 471 kts | 169° |
| 2026-04-21 21:07 | 28.34508 | 140.92453 | 37075 ft | 471 kts | 170° |
| 2026-04-21 21:08 | 28.28233 | 140.94608 | 37054 ft | 471 kts | 169° |
| 2026-04-21 21:08 | 28.21960 | 140.96759 | 37074 ft | 471 kts | 169° |
| 2026-04-21 21:09 | 28.15681 | 140.98910 | 37077 ft | 471 kts | 169° |
| 2026-04-21 21:09 | 28.09399 | 141.01058 | 37081 ft | 471 kts | 169° |
| 2026-04-21 21:10 | 28.03124 | 141.03202 | 37069 ft | 471 kts | 169° |
| 2026-04-21 21:10 | 27.96847 | 141.05345 | 37075 ft | 471 kts | 169° |
| 2026-04-21 21:11 | 27.90561 | 141.07487 | 37073 ft | 472 kts | 169° |
| 2026-04-21 21:11 | 27.84318 | 141.09612 | 37062 ft | 471 kts | 169° |
| 2026-04-21 21:12 | 27.78034 | 141.11748 | 37077 ft | 472 kts | 169° |
| 2026-04-21 21:12 | 27.71746 | 141.13884 | 37073 ft | 472 kts | 169° |
| 2026-04-21 21:13 | 27.65455 | 141.16017 | 37074 ft | 472 kts | 169° |
| 2026-04-21 21:13 | 27.59167 | 141.18148 | 37073 ft | 472 kts | 169° |
| 2026-04-21 21:14 | 27.52871 | 141.20278 | 37076 ft | 472 kts | 169° |
| 2026-04-21 21:14 | 27.46581 | 141.22404 | 37068 ft | 472 kts | 169° |
| 2026-04-21 21:15 | 27.40285 | 141.24529 | 37073 ft | 472 kts | 169° |
| 2026-04-21 21:15 | 27.34032 | 141.26637 | 37078 ft | 472 kts | 169° |
| 2026-04-21 21:16 | 27.27737 | 141.28756 | 37075 ft | 472 kts | 169° |
| 2026-04-21 21:16 | 27.21446 | 141.30872 | 37067 ft | 472 kts | 169° |
| 2026-04-21 21:17 | 27.15145 | 141.32989 | 37074 ft | 472 kts | 169° |
| 2026-04-21 21:17 | 27.08842 | 141.35104 | 37074 ft | 472 kts | 169° |
| 2026-04-21 21:18 | 27.02546 | 141.37214 | 37058 ft | 473 kts | 169° |
| 2026-04-21 21:18 | 26.96245 | 141.39324 | 37072 ft | 472 kts | 169° |
| 2026-04-21 21:19 | 26.89935 | 141.41434 | 37072 ft | 473 kts | 169° |
| 2026-04-21 21:19 | 26.83628 | 141.43540 | 37071 ft | 473 kts | 169° |
| 2026-04-21 21:20 | 26.77362 | 141.45630 | 37067 ft | 473 kts | 169° |
| 2026-04-21 21:20 | 26.71005 | 141.47749 | 37075 ft | 473 kts | 169° |
| 2026-04-21 21:21 | 26.64728 | 141.49838 | 37070 ft | 474 kts | 169° |
| 2026-04-21 21:21 | 26.58405 | 141.51940 | 37061 ft | 474 kts | 169° |
| 2026-04-21 21:22 | 26.52087 | 141.54038 | 37076 ft | 474 kts | 169° |
| 2026-04-21 21:22 | 26.45757 | 141.56138 | 37068 ft | 474 kts | 169° |
| 2026-04-21 21:23 | 26.39433 | 141.58233 | 37073 ft | 474 kts | 169° |
| 2026-04-21 21:23 | 26.33105 | 141.60327 | 37071 ft | 474 kts | 168° |
| 2026-04-21 21:24 | 26.26776 | 141.62419 | 37072 ft | 474 kts | 169° |
| 2026-04-21 21:24 | 26.20486 | 141.64496 | 37070 ft | 474 kts | 169° |
| 2026-04-21 21:25 | 26.14165 | 141.66580 | 37055 ft | 474 kts | 169° |
| 2026-04-21 21:25 | 26.07837 | 141.68665 | 37066 ft | 474 kts | 169° |
| 2026-04-21 21:26 | 26.01517 | 141.70745 | 37071 ft | 473 kts | 169° |
| 2026-04-21 21:26 | 25.95199 | 141.72821 | 37061 ft | 474 kts | 169° |
| 2026-04-21 21:27 | 25.88884 | 141.74895 | 37067 ft | 473 kts | 169° |
| 2026-04-21 21:27 | 25.82606 | 141.76953 | 37068 ft | 473 kts | 169° |
| 2026-04-21 21:28 | 25.76293 | 141.79021 | 37068 ft | 473 kts | 169° |
| 2026-04-21 21:29 | 25.66820 | 141.82120 | 37066 ft | 473 kts | 168° |
| 2026-04-21 21:29 | 25.60505 | 141.84183 | 37066 ft | 473 kts | 168° |
| 2026-04-21 21:30 | 25.54187 | 141.86244 | 37067 ft | 473 kts | 168° |
| 2026-04-21 21:30 | 25.47868 | 141.88304 | 37062 ft | 473 kts | 168° |
| 2026-04-21 21:31 | 25.41544 | 141.90363 | 37070 ft | 474 kts | 168° |
| 2026-04-21 21:31 | 25.35222 | 141.92419 | 37066 ft | 474 kts | 168° |
| 2026-04-21 21:32 | 25.28895 | 141.94474 | 37056 ft | 474 kts | 168° |
| 2026-04-21 21:32 | 25.22571 | 141.96526 | 37061 ft | 474 kts | 168° |
| 2026-04-21 21:33 | 25.16250 | 141.98575 | 37060 ft | 474 kts | 168° |
| 2026-04-21 21:33 | 25.09923 | 142.00623 | 37066 ft | 474 kts | 168° |
| 2026-04-21 21:34 | 25.03591 | 142.02671 | 37049 ft | 474 kts | 168° |
| 2026-04-21 21:34 | 24.97238 | 142.04571 | 37067 ft | 471 kts | 172° |
| 2026-04-21 21:35 | 24.90830 | 142.06075 | 37064 ft | 471 kts | 173° |
| 2026-04-21 21:35 | 24.84409 | 142.07574 | 37060 ft | 472 kts | 173° |
| 2026-04-21 21:36 | 24.77997 | 142.09125 | 37057 ft | 472 kts | 172° |
| 2026-04-21 21:36 | 24.71626 | 142.10683 | 37056 ft | 472 kts | 172° |
| 2026-04-21 21:37 | 24.65212 | 142.12256 | 37058 ft | 472 kts | 172° |
| 2026-04-21 21:37 | 24.58793 | 142.13827 | 37043 ft | 472 kts | 172° |
| 2026-04-21 21:38 | 24.52368 | 142.15395 | 37060 ft | 472 kts | 172° |
| 2026-04-21 21:38 | 24.45950 | 142.16959 | 37060 ft | 472 kts | 172° |
| 2026-04-21 21:39 | 24.39532 | 142.18520 | 37056 ft | 472 kts | 172° |
| 2026-04-21 21:39 | 24.33118 | 142.20080 | 37043 ft | 472 kts | 172° |
| 2026-04-21 21:40 | 24.26697 | 142.21640 | 37058 ft | 472 kts | 172° |
| 2026-04-21 21:40 | 24.20320 | 142.23187 | 37059 ft | 472 kts | 172° |
| 2026-04-21 21:41 | 24.13900 | 142.24743 | 37058 ft | 472 kts | 172° |
| 2026-04-21 21:41 | 24.07478 | 142.26299 | 37055 ft | 472 kts | 172° |
| 2026-04-21 21:42 | 24.01060 | 142.27851 | 37055 ft | 473 kts | 172° |
| 2026-04-21 21:42 | 23.94631 | 142.29405 | 37064 ft | 473 kts | 172° |
| 2026-04-21 21:43 | 23.88206 | 142.30956 | 37035 ft | 473 kts | 172° |
| 2026-04-21 21:43 | 23.81773 | 142.32508 | 37055 ft | 473 kts | 172° |
| 2026-04-21 21:44 | 23.75388 | 142.34046 | 37057 ft | 473 kts | 172° |
| 2026-04-21 21:44 | 23.68961 | 142.35593 | 37057 ft | 473 kts | 172° |
| 2026-04-21 21:45 | 23.62525 | 142.37141 | 37049 ft | 473 kts | 172° |
| 2026-04-21 21:45 | 23.56092 | 142.38686 | 37059 ft | 473 kts | 172° |
| 2026-04-21 21:46 | 23.49651 | 142.40231 | 37059 ft | 474 kts | 172° |
| 2026-04-21 21:46 | 23.43215 | 142.41774 | 37057 ft | 474 kts | 172° |
| 2026-04-21 21:47 | 23.36775 | 142.43317 | 37043 ft | 474 kts | 172° |
| 2026-04-21 21:47 | 23.30335 | 142.44857 | 37053 ft | 474 kts | 172° |
| 2026-04-21 21:48 | 23.23896 | 142.46396 | 37056 ft | 474 kts | 172° |
| 2026-04-21 21:48 | 23.17444 | 142.47937 | 37054 ft | 474 kts | 172° |
| 2026-04-21 21:49 | 23.11041 | 142.49464 | 37050 ft | 474 kts | 172° |
| 2026-04-21 21:49 | 23.04592 | 142.51001 | 37052 ft | 474 kts | 172° |
| 2026-04-21 21:50 | 22.98141 | 142.52537 | 37058 ft | 474 kts | 172° |
| 2026-04-21 21:50 | 22.91687 | 142.54072 | 37042 ft | 474 kts | 172° |
| 2026-04-21 21:51 | 22.85238 | 142.55604 | 37059 ft | 474 kts | 172° |
| 2026-04-21 21:51 | 22.78789 | 142.57135 | 37050 ft | 474 kts | 172° |
| 2026-04-21 21:52 | 22.72343 | 142.58664 | 37050 ft | 474 kts | 172° |
| 2026-04-21 21:52 | 22.65937 | 142.60182 | 37048 ft | 474 kts | 172° |
| 2026-04-21 21:53 | 22.59493 | 142.61707 | 37048 ft | 474 kts | 172° |
| 2026-04-21 21:53 | 22.53047 | 142.63231 | 37046 ft | 474 kts | 172° |
| 2026-04-21 21:54 | 22.46601 | 142.64754 | 37045 ft | 474 kts | 172° |
| 2026-04-21 21:54 | 22.40138 | 142.66279 | 37042 ft | 474 kts | 172° |
| 2026-04-21 21:55 | 22.34781 | 142.67542 | 37053 ft | 474 kts | 172° |
| 2026-04-21 21:55 | 22.28325 | 142.69063 | 37048 ft | 474 kts | 172° |
| 2026-04-21 21:56 | 22.21879 | 142.70581 | 37043 ft | 474 kts | 172° |
| 2026-04-21 21:56 | 22.15406 | 142.72103 | 37043 ft | 474 kts | 172° |
| 2026-04-21 21:57 | 22.08996 | 142.73609 | 37051 ft | 474 kts | 172° |
| 2026-04-21 21:57 | 22.02542 | 142.75124 | 37044 ft | 475 kts | 172° |
| 2026-04-21 21:58 | 21.96084 | 142.76638 | 37034 ft | 475 kts | 172° |
| 2026-04-21 21:58 | 21.89620 | 142.78152 | 37041 ft | 475 kts | 172° |
| 2026-04-21 21:59 | 21.83159 | 142.79664 | 37045 ft | 475 kts | 172° |
| 2026-04-21 21:59 | 21.76689 | 142.81177 | 37041 ft | 476 kts | 172° |
| 2026-04-21 22:00 | 21.70216 | 142.82690 | 37030 ft | 476 kts | 172° |
| 2026-04-21 22:00 | 21.63742 | 142.84201 | 37040 ft | 476 kts | 172° |
| 2026-04-21 22:01 | 21.57265 | 142.85711 | 37045 ft | 476 kts | 172° |
| 2026-04-21 22:01 | 21.50793 | 142.87219 | 37040 ft | 476 kts | 172° |
| 2026-04-21 22:02 | 21.44318 | 142.88726 | 37033 ft | 476 kts | 172° |
| 2026-04-21 22:02 | 21.37850 | 142.90230 | 37042 ft | 476 kts | 172° |
| 2026-04-21 22:03 | 21.31381 | 142.91733 | 37040 ft | 476 kts | 172° |
| 2026-04-21 22:03 | 21.24909 | 142.93235 | 37038 ft | 476 kts | 172° |
| 2026-04-21 22:04 | 21.18442 | 142.94735 | 37033 ft | 475 kts | 172° |
| 2026-04-21 22:04 | 21.11972 | 142.96233 | 37036 ft | 475 kts | 172° |
| 2026-04-21 22:05 | 21.05553 | 142.97718 | 37035 ft | 475 kts | 172° |
| 2026-04-21 22:05 | 20.99089 | 142.99216 | 37036 ft | 475 kts | 171° |
| 2026-04-21 22:06 | 20.92643 | 143.00809 | 37035 ft | 476 kts | 171° |
| 2026-04-21 22:06 | 20.86206 | 143.02448 | 37035 ft | 476 kts | 171° |
| 2026-04-21 22:07 | 20.79758 | 143.04079 | 37039 ft | 476 kts | 171° |
| 2026-04-21 22:07 | 20.73315 | 143.05696 | 37035 ft | 476 kts | 171° |
| 2026-04-21 22:08 | 20.66868 | 143.07308 | 37036 ft | 476 kts | 171° |
| 2026-04-21 22:08 | 20.60422 | 143.08917 | 37035 ft | 476 kts | 171° |
| 2026-04-21 22:09 | 20.53973 | 143.10527 | 37035 ft | 476 kts | 171° |
| 2026-04-21 22:09 | 20.47525 | 143.12134 | 37035 ft | 476 kts | 171° |
| 2026-04-21 22:10 | 20.41067 | 143.13744 | 37029 ft | 476 kts | 171° |
| 2026-04-21 22:10 | 20.34621 | 143.15348 | 37034 ft | 476 kts | 171° |
| 2026-04-21 22:11 | 20.28173 | 143.16952 | 37035 ft | 476 kts | 171° |
| 2026-04-21 22:11 | 20.21722 | 143.18555 | 37030 ft | 476 kts | 171° |
| 2026-04-21 22:12 | 20.15271 | 143.20157 | 37034 ft | 476 kts | 171° |
| 2026-04-21 22:12 | 20.08816 | 143.21759 | 37039 ft | 476 kts | 171° |
| 2026-04-21 22:13 | 20.02401 | 143.23349 | 37033 ft | 476 kts | 171° |
| 2026-04-21 22:13 | 19.95946 | 143.24948 | 37018 ft | 476 kts | 171° |
| 2026-04-21 22:14 | 19.89493 | 143.26545 | 37036 ft | 476 kts | 171° |
| 2026-04-21 22:14 | 19.83043 | 143.28140 | 37032 ft | 475 kts | 171° |
| 2026-04-21 22:15 | 19.76601 | 143.29732 | 37025 ft | 475 kts | 171° |
| 2026-04-21 22:15 | 19.70160 | 143.31322 | 37014 ft | 475 kts | 170° |
| 2026-04-21 22:16 | 19.63724 | 143.32909 | 37028 ft | 474 kts | 170° |
| 2026-04-21 22:16 | 19.57299 | 143.34493 | 37018 ft | 474 kts | 170° |
| 2026-04-21 22:17 | 19.50874 | 143.36075 | 37025 ft | 473 kts | 170° |
| 2026-04-21 22:17 | 19.44495 | 143.37644 | 37009 ft | 473 kts | 170° |
| 2026-04-21 22:18 | 19.38086 | 143.39220 | 37021 ft | 473 kts | 170° |
| 2026-04-21 22:18 | 19.31680 | 143.40794 | 37022 ft | 472 kts | 170° |
| 2026-04-21 22:19 | 19.25273 | 143.42366 | 37023 ft | 472 kts | 170° |
| 2026-04-21 22:19 | 19.18870 | 143.43937 | 37004 ft | 472 kts | 170° |
| 2026-04-21 22:20 | 19.12468 | 143.45505 | 37020 ft | 472 kts | 170° |
| 2026-04-21 22:20 | 19.06079 | 143.47070 | 37022 ft | 471 kts | 170° |
| 2026-04-21 22:21 | 18.99689 | 143.48634 | 37019 ft | 471 kts | 170° |
| 2026-04-21 22:21 | 18.93297 | 143.50196 | 37019 ft | 471 kts | 170° |
| 2026-04-21 22:22 | 18.86905 | 143.51758 | 37018 ft | 471 kts | 170° |
| 2026-04-21 22:22 | 18.80524 | 143.53315 | 37015 ft | 471 kts | 170° |
| 2026-04-21 22:23 | 18.74143 | 143.54871 | 37016 ft | 471 kts | 170° |
| 2026-04-21 22:23 | 18.67797 | 143.56418 | 37017 ft | 470 kts | 170° |
| 2026-04-21 22:24 | 18.61416 | 143.57972 | 37012 ft | 470 kts | 170° |
| 2026-04-21 22:24 | 18.55041 | 143.59523 | 37013 ft | 470 kts | 170° |
| 2026-04-21 22:25 | 18.48665 | 143.61074 | 37014 ft | 470 kts | 170° |
| 2026-04-21 22:25 | 18.42286 | 143.62624 | 37014 ft | 470 kts | 170° |
| 2026-04-21 22:26 | 18.35900 | 143.64174 | 37011 ft | 470 kts | 170° |
| 2026-04-21 22:26 | 18.29564 | 143.65711 | 37014 ft | 470 kts | 170° |
| 2026-04-21 22:27 | 18.23179 | 143.67259 | 37013 ft | 470 kts | 170° |
| 2026-04-21 22:27 | 18.16797 | 143.68805 | 37014 ft | 471 kts | 170° |
| 2026-04-21 22:28 | 18.10417 | 143.70349 | 37014 ft | 471 kts | 170° |
| 2026-04-21 22:28 | 18.04026 | 143.71895 | 37011 ft | 471 kts | 170° |
| 2026-04-21 22:29 | 17.97643 | 143.73437 | 37011 ft | 471 kts | 170° |
| 2026-04-21 22:29 | 17.91256 | 143.74980 | 37017 ft | 471 kts | 170° |
| 2026-04-21 22:30 | 17.84871 | 143.76520 | 37000 ft | 471 kts | 169° |
| 2026-04-21 22:30 | 17.78534 | 143.78048 | 37008 ft | 470 kts | 169° |
| 2026-04-21 22:31 | 17.72153 | 143.79585 | 37014 ft | 470 kts | 169° |
| 2026-04-21 22:31 | 17.65770 | 143.81121 | 37008 ft | 470 kts | 169° |
| 2026-04-21 22:32 | 17.59388 | 143.82656 | 37007 ft | 470 kts | 169° |
| 2026-04-21 22:32 | 17.52999 | 143.84165 | 37009 ft | 470 kts | 170° |
| 2026-04-21 22:33 | 17.46641 | 143.85584 | 37007 ft | 470 kts | 171° |
| 2026-04-21 22:33 | 17.40241 | 143.87000 | 37008 ft | 470 kts | 171° |
| 2026-04-21 22:34 | 17.33838 | 143.88423 | 36996 ft | 470 kts | 170° |
| 2026-04-21 22:34 | 17.27442 | 143.89851 | 37008 ft | 470 kts | 170° |
| 2026-04-21 22:35 | 17.21048 | 143.91279 | 37008 ft | 470 kts | 170° |
| 2026-04-21 22:35 | 17.14648 | 143.92707 | 37004 ft | 470 kts | 170° |
| 2026-04-21 22:36 | 17.05042 | 143.94848 | 36999 ft | 470 kts | 170° |
| 2026-04-21 22:36 | 16.98634 | 143.96275 | 37002 ft | 470 kts | 170° |
| 2026-04-21 22:37 | 16.92231 | 143.97700 | 37007 ft | 470 kts | 170° |
| 2026-04-21 22:37 | 16.85875 | 143.99113 | 37002 ft | 470 kts | 170° |
| 2026-04-21 22:38 | 16.79472 | 144.00536 | 36992 ft | 470 kts | 170° |
| 2026-04-21 22:38 | 16.73068 | 144.01958 | 36998 ft | 470 kts | 170° |
| 2026-04-21 22:39 | 16.66670 | 144.03378 | 37003 ft | 470 kts | 170° |
| 2026-04-21 22:39 | 16.60271 | 144.04797 | 37000 ft | 470 kts | 170° |
| 2026-04-21 22:40 | 16.53870 | 144.06216 | 37000 ft | 470 kts | 170° |
| 2026-04-21 22:40 | 16.47476 | 144.07632 | 36998 ft | 470 kts | 169° |
| 2026-04-21 22:41 | 16.41081 | 144.09047 | 36994 ft | 470 kts | 169° |
| 2026-04-21 22:41 | 16.34686 | 144.10461 | 36996 ft | 470 kts | 169° |
| 2026-04-21 22:42 | 16.29374 | 144.11636 | 37000 ft | 470 kts | 169° |
| 2026-04-21 22:42 | 16.22974 | 144.13049 | 36995 ft | 470 kts | 169° |
| 2026-04-21 22:43 | 16.15542 | 144.14690 | 36995 ft | 470 kts | 169° |
| 2026-04-21 22:43 | 16.10183 | 144.15872 | 36993 ft | 470 kts | 169° |
| 2026-04-21 22:44 | 16.03834 | 144.17271 | 36998 ft | 469 kts | 169° |
| 2026-04-21 22:44 | 15.97445 | 144.18679 | 36994 ft | 469 kts | 169° |
| 2026-04-21 22:45 | 15.91055 | 144.20086 | 36993 ft | 469 kts | 169° |
| 2026-04-21 22:45 | 15.84663 | 144.21492 | 36996 ft | 469 kts | 169° |
| 2026-04-21 22:46 | 15.78268 | 144.22898 | 36995 ft | 470 kts | 169° |
| 2026-04-21 22:46 | 15.71870 | 144.24304 | 36994 ft | 470 kts | 169° |
| 2026-04-21 22:47 | 15.65472 | 144.25709 | 36992 ft | 470 kts | 169° |
| 2026-04-21 22:47 | 15.59073 | 144.27113 | 36992 ft | 470 kts | 169° |
| 2026-04-21 22:48 | 15.52661 | 144.28519 | 36769 ft | 474 kts | 169° |
| 2026-04-21 22:48 | 15.49459 | 144.29221 | 36225 ft | 475 kts | 169° |
| 2026-04-21 22:48 | 15.46232 | 144.29928 | 35583 ft | 474 kts | 169° |
| 2026-04-21 22:49 | 15.43003 | 144.30635 | 34904 ft | 476 kts | 169° |
| 2026-04-21 22:49 | 15.39757 | 144.31346 | 34283 ft | 476 kts | 169° |
| 2026-04-21 22:49 | 15.36526 | 144.32054 | 33717 ft | 474 kts | 169° |
| 2026-04-21 22:49 | 15.33305 | 144.32759 | 33209 ft | 470 kts | 169° |
| 2026-04-21 22:50 | 15.30126 | 144.33454 | 32695 ft | 466 kts | 169° |
| 2026-04-21 22:50 | 15.26938 | 144.34151 | 32216 ft | 470 kts | 168° |
| 2026-04-21 22:50 | 15.23730 | 144.34852 | 31727 ft | 472 kts | 168° |
| 2026-04-21 22:50 | 15.20517 | 144.35554 | 31230 ft | 471 kts | 169° |
| 2026-04-21 22:51 | 15.17311 | 144.36254 | 30711 ft | 472 kts | 168° |
| 2026-04-21 22:51 | 15.14046 | 144.36966 | 30227 ft | 487 kts | 169° |
| 2026-04-21 22:51 | 15.10715 | 144.37693 | 29627 ft | 489 kts | 169° |
| 2026-04-21 22:51 | 15.07378 | 144.38234 | 29052 ft | 482 kts | 176° |
| 2026-04-21 22:52 | 15.04047 | 144.38440 | 28533 ft | 477 kts | 178° |
| 2026-04-21 22:52 | 15.00746 | 144.38576 | 28007 ft | 473 kts | 178° |
| 2026-04-21 22:52 | 14.97471 | 144.38696 | 27486 ft | 469 kts | 179° |
| 2026-04-21 22:52 | 14.94217 | 144.38822 | 26975 ft | 467 kts | 179° |
| 2026-04-21 22:53 | 14.90978 | 144.38961 | 26466 ft | 465 kts | 178° |
| 2026-04-21 22:53 | 14.87759 | 144.39110 | 25964 ft | 462 kts | 178° |
| 2026-04-21 22:53 | 14.84527 | 144.39269 | 25443 ft | 469 kts | 178° |
| 2026-04-21 22:53 | 14.81242 | 144.39435 | 24901 ft | 473 kts | 178° |
| 2026-04-21 22:54 | 14.77970 | 144.39603 | 24367 ft | 467 kts | 177° |
| 2026-04-21 22:54 | 14.74746 | 144.39768 | 23855 ft | 460 kts | 177° |
| 2026-04-21 22:54 | 14.71566 | 144.39931 | 23299 ft | 455 kts | 177° |
| 2026-04-21 22:54 | 14.68471 | 144.40089 | 22751 ft | 448 kts | 177° |
| 2026-04-21 22:55 | 14.65374 | 144.40247 | 22231 ft | 442 kts | 177° |
| 2026-04-21 22:55 | 14.62318 | 144.40403 | 21741 ft | 439 kts | 177° |
| 2026-04-21 22:55 | 14.59230 | 144.40560 | 21249 ft | 447 kts | 177° |
| 2026-04-21 22:55 | 14.56111 | 144.40718 | 20739 ft | 449 kts | 177° |
| 2026-04-21 22:56 | 14.53005 | 144.40876 | 20227 ft | 444 kts | 177° |
| 2026-04-21 22:56 | 14.49935 | 144.41032 | 19738 ft | 439 kts | 177° |
| 2026-04-21 22:56 | 14.46894 | 144.41186 | 19220 ft | 435 kts | 177° |
| 2026-04-21 22:56 | 14.43876 | 144.41339 | 18730 ft | 432 kts | 177° |
| 2026-04-21 22:57 | 14.40890 | 144.41490 | 18231 ft | 429 kts | 178° |
| 2026-04-21 22:57 | 14.37920 | 144.41640 | 17684 ft | 425 kts | 178° |
| 2026-04-21 22:57 | 14.34983 | 144.41789 | 17181 ft | 421 kts | 178° |
| 2026-04-21 22:57 | 14.32076 | 144.41937 | 16693 ft | 416 kts | 178° |
| 2026-04-21 22:58 | 14.29194 | 144.42081 | 16208 ft | 413 kts | 178° |
| 2026-04-21 22:58 | 14.26374 | 144.42223 | 15750 ft | 409 kts | 177° |
| 2026-04-21 22:58 | 14.23506 | 144.42368 | 15279 ft | 406 kts | 177° |
| 2026-04-21 22:58 | 14.20728 | 144.42508 | 14820 ft | 403 kts | 177° |
| 2026-04-21 22:59 | 14.17933 | 144.42649 | 14363 ft | 401 kts | 177° |
| 2026-04-21 22:59 | 14.15160 | 144.42788 | 13905 ft | 397 kts | 177° |
| 2026-04-21 22:59 | 14.12414 | 144.42926 | 13409 ft | 393 kts | 177° |
| 2026-04-21 22:59 | 14.09697 | 144.43062 | 12916 ft | 389 kts | 177° |
| 2026-04-21 23:00 | 14.07009 | 144.43199 | 12448 ft | 385 kts | 177° |
| 2026-04-21 23:00 | 14.04348 | 144.43407 | 11991 ft | 382 kts | 172° |
| 2026-04-21 23:00 | 14.01740 | 144.43882 | 11530 ft | 380 kts | 168° |
| 2026-04-21 23:00 | 13.99154 | 144.44466 | 11132 ft | 383 kts | 167° |
| 2026-04-21 23:01 | 13.96534 | 144.45083 | 11032 ft | 388 kts | 166° |
| 2026-04-21 23:01 | 13.93885 | 144.45697 | 10989 ft | 393 kts | 167° |
| 2026-04-21 23:01 | 13.91216 | 144.46297 | 10977 ft | 392 kts | 167° |
| 2026-04-21 23:01 | 13.88513 | 144.46890 | 10985 ft | 401 kts | 167° |
| 2026-04-21 23:02 | 13.85760 | 144.47483 | 10983 ft | 406 kts | 168° |
| 2026-04-21 23:02 | 13.82999 | 144.48071 | 10970 ft | 404 kts | 168° |
| 2026-04-21 23:02 | 13.80245 | 144.48655 | 10980 ft | 404 kts | 168° |
| 2026-04-21 23:02 | 13.77551 | 144.49224 | 10949 ft | 380 kts | 167° |
| 2026-04-21 23:03 | 13.75061 | 144.49748 | 10815 ft | 353 kts | 167° |
| 2026-04-21 23:03 | 13.72720 | 144.50241 | 10452 ft | 336 kts | 167° |
| 2026-04-21 23:03 | 13.70469 | 144.50715 | 10170 ft | 320 kts | 167° |
| 2026-04-21 23:03 | 13.68388 | 144.51155 | 10116 ft | 299 kts | 167° |
| 2026-04-21 23:04 | 13.66368 | 144.51581 | 9713 ft | 292 kts | 166° |
| 2026-04-21 23:04 | 13.64406 | 144.51995 | 9311 ft | 283 kts | 166° |
| 2026-04-21 23:04 | 13.62514 | 144.52394 | 8825 ft | 273 kts | 165° |
| 2026-04-21 23:04 | 13.60691 | 144.52779 | 8346 ft | 263 kts | 165° |
| 2026-04-21 23:05 | 13.58899 | 144.53159 | 7866 ft | 264 kts | 165° |
| 2026-04-21 23:05 | 13.57086 | 144.53544 | 7395 ft | 268 kts | 165° |
| 2026-04-21 23:05 | 13.55238 | 144.53935 | 6941 ft | 276 kts | 166° |
| 2026-04-21 23:05 | 13.53351 | 144.54334 | 6473 ft | 275 kts | 165° |
| 2026-04-21 23:06 | 13.51517 | 144.54719 | 5969 ft | 263 kts | 165° |
| 2026-04-21 23:06 | 13.49754 | 144.55090 | 5480 ft | 254 kts | 165° |
| 2026-04-21 23:06 | 13.48052 | 144.55449 | 4994 ft | 246 kts | 165° |
| 2026-04-21 23:06 | 13.46402 | 144.55837 | 4497 ft | 239 kts | 157° |
| 2026-04-21 23:07 | 13.44898 | 144.56505 | 4019 ft | 233 kts | 151° |
| 2026-04-21 23:07 | 13.43449 | 144.57229 | 3531 ft | 230 kts | 150° |
| 2026-04-21 23:07 | 13.42027 | 144.57930 | 3220 ft | 219 kts | 150° |
| 2026-04-21 23:07 | 13.40790 | 144.58669 | 3194 ft | 195 kts | 130° |
| 2026-04-21 23:08 | 13.40170 | 144.59793 | 3191 ft | 172 kts | 101° |
| 2026-04-21 23:08 | 13.40090 | 144.61000 | 3183 ft | 171 kts | 82° |
| 2026-04-21 23:08 | 13.40450 | 144.62172 | 3138 ft | 180 kts | 67° |
| 2026-04-21 23:08 | 13.40985 | 144.63354 | 2984 ft | 182 kts | 65° |
| 2026-04-21 23:09 | 13.41524 | 144.64516 | 2846 ft | 180 kts | 64° |
| 2026-04-21 23:09 | 13.42074 | 144.65703 | 2685 ft | 189 kts | 65° |
| 2026-04-21 23:09 | 13.42646 | 144.66943 | 2480 ft | 193 kts | 65° |
| 2026-04-21 23:09 | 13.43215 | 144.68178 | 2284 ft | 190 kts | 66° |
| 2026-04-21 23:10 | 13.43764 | 144.69373 | 2098 ft | 179 kts | 65° |
| 2026-04-21 23:10 | 13.44277 | 144.70489 | 1874 ft | 166 kts | 65° |
| 2026-04-21 23:10 | 13.44740 | 144.71498 | 1721 ft | 148 kts | 66° |
| 2026-04-21 23:10 | 13.45159 | 144.72411 | 1505 ft | 136 kts | 66° |
| 2026-04-21 23:11 | 13.45553 | 144.73274 | 1348 ft | 133 kts | 65° |
| 2026-04-21 23:11 | 13.45963 | 144.74168 | 1207 ft | 143 kts | 66° |
| 2026-04-21 23:11 | 13.46383 | 144.75081 | 1026 ft | 139 kts | 66° |
| 2026-04-21 23:11 | 13.46797 | 144.75991 | 830 ft | 142 kts | 63° |
| 2026-04-21 23:12 | 13.47194 | 144.76909 | 683 ft | 138 kts | 64° |
| 2026-04-21 23:12 | 13.47610 | 144.77780 | 410 ft | 137 kts | 65° |
| 2026-04-21 23:12 | 13.48005 | 144.78645 | 284 ft | 130 kts | 64° |
| 2026-04-21 23:12 | 13.48329 | 144.79350 | 277 ft | 81 kts | 64° |
| 2026-04-21 23:13 | 13.48506 | 144.79740 | 281 ft | 46 kts | 65° |
| 2026-04-21 23:13 | 13.48631 | 144.80009 | 288 ft | 26 kts | 62° |
| 2026-04-21 23:13 | 13.48738 | 144.80038 | 293 ft | 11 kts | 348° |
| 2026-04-21 23:13 | 13.48787 | 144.80090 | 291 ft | 11 kts | 64° |
| 2026-04-21 23:14 | 13.48821 | 144.80160 | 294 ft | 10 kts | 65° |
| 2026-04-21 23:14 | 13.48863 | 144.80249 | 296 ft | 16 kts | 61° |
| 2026-04-21 23:14 | 13.48919 | 144.80345 | 297 ft | 15 kts | 56° |
| 2026-04-21 23:14 | 13.48992 | 144.80421 | 294 ft | 15 kts | 45° |
| 2026-04-21 23:15 | 13.49047 | 144.80506 | 296 ft | 14 kts | 62° |
| 2026-04-21 23:15 | 13.49095 | 144.80594 | 296 ft | 15 kts | 60° |
| 2026-04-21 23:15 | 13.49153 | 144.80703 | 299 ft | 19 kts | 62° |
| 2026-04-21 23:15 | 13.49213 | 144.80819 | 297 ft | 18 kts | 62° |
| 2026-04-21 23:16 | 13.49271 | 144.80929 | 298 ft | 17 kts | 62° |
| 2026-04-21 23:16 | 13.49326 | 144.81030 | 300 ft | 14 kts | 51° |
| 2026-04-21 23:16 | 13.49409 | 144.81032 | 299 ft | 12 kts | 330° |
| 2026-04-21 23:16 | 13.49449 | 144.80993 | 297 ft | 7 kts | 276° |
| 2026-04-21 23:17 | 13.49433 | 144.80946 | 297 ft | 7 kts | 248° |
| 2026-04-21 23:17 | 13.49426 | 144.80930 | 298 ft | 0 kts | 246° |
| 2026-04-21 23:17 | 13.49425 | 144.80927 | 299 ft | 0 kts | 245° |